<?xml version="1.0" encoding="UTF-8" standalone="no" ?>
<gpx xmlns="http://www.topografix.com/GPX/1/1" xmlns:xsi="http://www.w3.org/2001/XMLSchema-instance" xsi:schemaLocation="http://www.topografix.com/GPX/1/1 http://www.topografix.com/GPX/1/1/gpx.xsd" version="1.1" creator="VisuGPX - https://www.visugpx.com">
  <metadata>
    <name>Grand Galbert </name>
    <desc><![CDATA[Grand Galbert en boucle oulles->Infernet]]></desc>
  </metadata>
  <trk>
    <name><![CDATA[2016-03-09-01]]></name>
    <trkseg>
      <trkpt lat="45.07479" lon="5.98164">
        <ele>1448.4</ele>
        <time>2016-03-09T06:23:01Z</time>
      </trkpt>
      <trkpt lat="45.07479" lon="5.98148">
        <ele>1442.4</ele>
        <time>2016-03-09T06:23:02Z</time>
      </trkpt>
      <trkpt lat="45.07476" lon="5.98135">
        <ele>1451.4</ele>
        <time>2016-03-09T06:23:14Z</time>
      </trkpt>
      <trkpt lat="45.07474" lon="5.98123">
        <ele>1456.4</ele>
        <time>2016-03-09T06:23:28Z</time>
      </trkpt>
      <trkpt lat="45.07472" lon="5.9811">
        <ele>1457.4</ele>
        <time>2016-03-09T06:23:41Z</time>
      </trkpt>
      <trkpt lat="45.07471" lon="5.98097">
        <ele>1458.4</ele>
        <time>2016-03-09T06:23:54Z</time>
      </trkpt>
      <trkpt lat="45.0747" lon="5.98084">
        <ele>1462.4</ele>
        <time>2016-03-09T06:24:11Z</time>
      </trkpt>
      <trkpt lat="45.07475" lon="5.98073">
        <ele>1463.4</ele>
        <time>2016-03-09T06:24:30Z</time>
      </trkpt>
      <trkpt lat="45.07484" lon="5.98075">
        <ele>1470.4</ele>
        <time>2016-03-09T06:24:57Z</time>
      </trkpt>
      <trkpt lat="45.07493" lon="5.98077">
        <ele>1471.4</ele>
        <time>2016-03-09T06:25:10Z</time>
      </trkpt>
      <trkpt lat="45.07502" lon="5.98081">
        <ele>1474.4</ele>
        <time>2016-03-09T06:25:24Z</time>
      </trkpt>
      <trkpt lat="45.07512" lon="5.98082">
        <ele>1486.4</ele>
        <time>2016-03-09T06:25:33Z</time>
      </trkpt>
      <trkpt lat="45.0752" lon="5.98091">
        <ele>1488.4</ele>
        <time>2016-03-09T06:25:45Z</time>
      </trkpt>
      <trkpt lat="45.07528" lon="5.98097">
        <ele>1487.4</ele>
        <time>2016-03-09T06:25:56Z</time>
      </trkpt>
      <trkpt lat="45.07537" lon="5.98103">
        <ele>1489.4</ele>
        <time>2016-03-09T06:26:10Z</time>
      </trkpt>
      <trkpt lat="45.07546" lon="5.98104">
        <ele>1489.4</ele>
        <time>2016-03-09T06:26:21Z</time>
      </trkpt>
      <trkpt lat="45.07555" lon="5.98105">
        <ele>1490.4</ele>
        <time>2016-03-09T06:26:36Z</time>
      </trkpt>
      <trkpt lat="45.07551" lon="5.98093">
        <ele>1490.4</ele>
        <time>2016-03-09T06:26:59Z</time>
      </trkpt>
      <trkpt lat="45.0755" lon="5.9808">
        <ele>1491.4</ele>
        <time>2016-03-09T06:27:12Z</time>
      </trkpt>
      <trkpt lat="45.07559" lon="5.98084">
        <ele>1491.4</ele>
        <time>2016-03-09T06:27:22Z</time>
      </trkpt>
      <trkpt lat="45.07568" lon="5.98089">
        <ele>1493.4</ele>
        <time>2016-03-09T06:27:38Z</time>
      </trkpt>
      <trkpt lat="45.07577" lon="5.98091">
        <ele>1493.4</ele>
        <time>2016-03-09T06:27:52Z</time>
      </trkpt>
      <trkpt lat="45.07577" lon="5.98077">
        <ele>1493.4</ele>
        <time>2016-03-09T06:28:07Z</time>
      </trkpt>
      <trkpt lat="45.07571" lon="5.98068">
        <ele>1496.4</ele>
        <time>2016-03-09T06:28:19Z</time>
      </trkpt>
      <trkpt lat="45.07564" lon="5.98058">
        <ele>1498.4</ele>
        <time>2016-03-09T06:28:31Z</time>
      </trkpt>
      <trkpt lat="45.0756" lon="5.98045">
        <ele>1502.4</ele>
        <time>2016-03-09T06:28:47Z</time>
      </trkpt>
      <trkpt lat="45.0757" lon="5.98041">
        <ele>1503.4</ele>
        <time>2016-03-09T06:29:06Z</time>
      </trkpt>
      <trkpt lat="45.07579" lon="5.98051">
        <ele>1503.4</ele>
        <time>2016-03-09T06:29:18Z</time>
      </trkpt>
      <trkpt lat="45.07588" lon="5.98056">
        <ele>1502.4</ele>
        <time>2016-03-09T06:29:28Z</time>
      </trkpt>
      <trkpt lat="45.07596" lon="5.9806">
        <ele>1503.4</ele>
        <time>2016-03-09T06:29:37Z</time>
      </trkpt>
      <trkpt lat="45.07607" lon="5.98059">
        <ele>1504.4</ele>
        <time>2016-03-09T06:29:54Z</time>
      </trkpt>
      <trkpt lat="45.07616" lon="5.98054">
        <ele>1504.4</ele>
        <time>2016-03-09T06:30:04Z</time>
      </trkpt>
      <trkpt lat="45.07625" lon="5.98059">
        <ele>1505.4</ele>
        <time>2016-03-09T06:30:14Z</time>
      </trkpt>
      <trkpt lat="45.07647" lon="5.98052">
        <ele>1504.4</ele>
        <time>2016-03-09T06:30:30Z</time>
      </trkpt>
      <trkpt lat="45.07657" lon="5.98051">
        <ele>1505.4</ele>
        <time>2016-03-09T06:30:40Z</time>
      </trkpt>
      <trkpt lat="45.07665" lon="5.98058">
        <ele>1507.4</ele>
        <time>2016-03-09T06:30:54Z</time>
      </trkpt>
      <trkpt lat="45.07674" lon="5.98053">
        <ele>1509.4</ele>
        <time>2016-03-09T06:31:13Z</time>
      </trkpt>
      <trkpt lat="45.07684" lon="5.98048">
        <ele>1507.4</ele>
        <time>2016-03-09T06:31:31Z</time>
      </trkpt>
      <trkpt lat="45.07693" lon="5.98046">
        <ele>1513.4</ele>
        <time>2016-03-09T06:31:53Z</time>
      </trkpt>
      <trkpt lat="45.07701" lon="5.98038">
        <ele>1515.4</ele>
        <time>2016-03-09T06:32:30Z</time>
      </trkpt>
      <trkpt lat="45.07711" lon="5.98034">
        <ele>1515.4</ele>
        <time>2016-03-09T06:32:44Z</time>
      </trkpt>
      <trkpt lat="45.07719" lon="5.98028">
        <ele>1518.4</ele>
        <time>2016-03-09T06:33:13Z</time>
      </trkpt>
      <trkpt lat="45.07714" lon="5.98039">
        <ele>1521.4</ele>
        <time>2016-03-09T06:33:31Z</time>
      </trkpt>
      <trkpt lat="45.07712" lon="5.98052">
        <ele>1520.4</ele>
        <time>2016-03-09T06:33:42Z</time>
      </trkpt>
      <trkpt lat="45.07717" lon="5.98064">
        <ele>1522.4</ele>
        <time>2016-03-09T06:33:56Z</time>
      </trkpt>
      <trkpt lat="45.07725" lon="5.9807">
        <ele>1524.4</ele>
        <time>2016-03-09T06:37:06Z</time>
      </trkpt>
      <trkpt lat="45.07731" lon="5.9808">
        <ele>1525.4</ele>
        <time>2016-03-09T06:37:21Z</time>
      </trkpt>
      <trkpt lat="45.07737" lon="5.98091">
        <ele>1529.4</ele>
        <time>2016-03-09T06:37:41Z</time>
      </trkpt>
      <trkpt lat="45.07741" lon="5.98079">
        <ele>1533.4</ele>
        <time>2016-03-09T06:38:01Z</time>
      </trkpt>
      <trkpt lat="45.07744" lon="5.98066">
        <ele>1535.4</ele>
        <time>2016-03-09T06:38:17Z</time>
      </trkpt>
      <trkpt lat="45.07746" lon="5.98053">
        <ele>1537.4</ele>
        <time>2016-03-09T06:38:33Z</time>
      </trkpt>
      <trkpt lat="45.07746" lon="5.98038">
        <ele>1539.4</ele>
        <time>2016-03-09T06:38:50Z</time>
      </trkpt>
      <trkpt lat="45.07748" lon="5.98025">
        <ele>1541.4</ele>
        <time>2016-03-09T06:39:07Z</time>
      </trkpt>
      <trkpt lat="45.07752" lon="5.98037">
        <ele>1542.4</ele>
        <time>2016-03-09T06:39:29Z</time>
      </trkpt>
      <trkpt lat="45.07755" lon="5.98049">
        <ele>1544.4</ele>
        <time>2016-03-09T06:39:46Z</time>
      </trkpt>
      <trkpt lat="45.07758" lon="5.98061">
        <ele>1546.4</ele>
        <time>2016-03-09T06:40:03Z</time>
      </trkpt>
      <trkpt lat="45.07763" lon="5.98072">
        <ele>1548.4</ele>
        <time>2016-03-09T06:40:19Z</time>
      </trkpt>
      <trkpt lat="45.07766" lon="5.98059">
        <ele>1550.4</ele>
        <time>2016-03-09T06:40:44Z</time>
      </trkpt>
      <trkpt lat="45.07768" lon="5.98046">
        <ele>1552.4</ele>
        <time>2016-03-09T06:41:01Z</time>
      </trkpt>
      <trkpt lat="45.07775" lon="5.98055">
        <ele>1556.4</ele>
        <time>2016-03-09T06:41:40Z</time>
      </trkpt>
      <trkpt lat="45.07784" lon="5.98059">
        <ele>1560.4</ele>
        <time>2016-03-09T06:41:59Z</time>
      </trkpt>
      <trkpt lat="45.07787" lon="5.98047">
        <ele>1565.4</ele>
        <time>2016-03-09T06:42:45Z</time>
      </trkpt>
      <trkpt lat="45.07792" lon="5.98035">
        <ele>1567.4</ele>
        <time>2016-03-09T06:43:03Z</time>
      </trkpt>
      <trkpt lat="45.07797" lon="5.98023">
        <ele>1568.4</ele>
        <time>2016-03-09T06:43:22Z</time>
      </trkpt>
      <trkpt lat="45.07801" lon="5.98012">
        <ele>1571.4</ele>
        <time>2016-03-09T06:43:44Z</time>
      </trkpt>
      <trkpt lat="45.07805" lon="5.98001">
        <ele>1573.4</ele>
        <time>2016-03-09T06:44:04Z</time>
      </trkpt>
      <trkpt lat="45.07812" lon="5.9801">
        <ele>1579.4</ele>
        <time>2016-03-09T06:44:59Z</time>
      </trkpt>
      <trkpt lat="45.07818" lon="5.9802">
        <ele>1584.4</ele>
        <time>2016-03-09T06:45:18Z</time>
      </trkpt>
      <trkpt lat="45.07827" lon="5.98021">
        <ele>1586.4</ele>
        <time>2016-03-09T06:45:32Z</time>
      </trkpt>
      <trkpt lat="45.07827" lon="5.98008">
        <ele>1589.4</ele>
        <time>2016-03-09T06:47:46Z</time>
      </trkpt>
      <trkpt lat="45.07832" lon="5.97996">
        <ele>1593.4</ele>
        <time>2016-03-09T06:48:05Z</time>
      </trkpt>
      <trkpt lat="45.07839" lon="5.97987">
        <ele>1595.4</ele>
        <time>2016-03-09T06:48:24Z</time>
      </trkpt>
      <trkpt lat="45.07843" lon="5.97976">
        <ele>1599.4</ele>
        <time>2016-03-09T06:48:46Z</time>
      </trkpt>
      <trkpt lat="45.07853" lon="5.97975">
        <ele>1606.4</ele>
        <time>2016-03-09T06:49:35Z</time>
      </trkpt>
      <trkpt lat="45.07858" lon="5.97965">
        <ele>1609.4</ele>
        <time>2016-03-09T06:49:59Z</time>
      </trkpt>
      <trkpt lat="45.07861" lon="5.97952">
        <ele>1613.4</ele>
        <time>2016-03-09T06:50:25Z</time>
      </trkpt>
      <trkpt lat="45.07864" lon="5.9794">
        <ele>1617.4</ele>
        <time>2016-03-09T06:50:45Z</time>
      </trkpt>
      <trkpt lat="45.07873" lon="5.97937">
        <ele>1620.4</ele>
        <time>2016-03-09T06:51:09Z</time>
      </trkpt>
      <trkpt lat="45.07882" lon="5.97934">
        <ele>1620.4</ele>
        <time>2016-03-09T06:51:27Z</time>
      </trkpt>
      <trkpt lat="45.07892" lon="5.97935">
        <ele>1622.4</ele>
        <time>2016-03-09T06:51:45Z</time>
      </trkpt>
      <trkpt lat="45.07901" lon="5.97933">
        <ele>1625.4</ele>
        <time>2016-03-09T06:52:06Z</time>
      </trkpt>
      <trkpt lat="45.0791" lon="5.97927">
        <ele>1630.4</ele>
        <time>2016-03-09T06:52:27Z</time>
      </trkpt>
      <trkpt lat="45.07903" lon="5.97919">
        <ele>1637.4</ele>
        <time>2016-03-09T06:53:03Z</time>
      </trkpt>
      <trkpt lat="45.07897" lon="5.97908">
        <ele>1640.4</ele>
        <time>2016-03-09T06:53:24Z</time>
      </trkpt>
      <trkpt lat="45.07903" lon="5.97898">
        <ele>1643.4</ele>
        <time>2016-03-09T06:54:09Z</time>
      </trkpt>
      <trkpt lat="45.07909" lon="5.97888">
        <ele>1647.4</ele>
        <time>2016-03-09T06:54:52Z</time>
      </trkpt>
      <trkpt lat="45.07907" lon="5.97874">
        <ele>1655.4</ele>
        <time>2016-03-09T06:55:38Z</time>
      </trkpt>
      <trkpt lat="45.07916" lon="5.97869">
        <ele>1657.4</ele>
        <time>2016-03-09T06:56:01Z</time>
      </trkpt>
      <trkpt lat="45.07923" lon="5.97861">
        <ele>1660.4</ele>
        <time>2016-03-09T06:56:21Z</time>
      </trkpt>
      <trkpt lat="45.07917" lon="5.97851">
        <ele>1664.4</ele>
        <time>2016-03-09T06:56:52Z</time>
      </trkpt>
      <trkpt lat="45.07911" lon="5.97841">
        <ele>1667.4</ele>
        <time>2016-03-09T06:57:11Z</time>
      </trkpt>
      <trkpt lat="45.07908" lon="5.97825">
        <ele>1669.4</ele>
        <time>2016-03-09T06:57:34Z</time>
      </trkpt>
      <trkpt lat="45.07918" lon="5.97828">
        <ele>1672.4</ele>
        <time>2016-03-09T06:57:56Z</time>
      </trkpt>
      <trkpt lat="45.07927" lon="5.97825">
        <ele>1673.4</ele>
        <time>2016-03-09T06:58:11Z</time>
      </trkpt>
      <trkpt lat="45.07926" lon="5.97812">
        <ele>1679.4</ele>
        <time>2016-03-09T06:58:46Z</time>
      </trkpt>
      <trkpt lat="45.0792" lon="5.97803">
        <ele>1682.4</ele>
        <time>2016-03-09T06:59:06Z</time>
      </trkpt>
      <trkpt lat="45.07918" lon="5.9779">
        <ele>1685.4</ele>
        <time>2016-03-09T06:59:23Z</time>
      </trkpt>
      <trkpt lat="45.07927" lon="5.97789">
        <ele>1689.4</ele>
        <time>2016-03-09T06:59:46Z</time>
      </trkpt>
      <trkpt lat="45.07936" lon="5.97787">
        <ele>1690.4</ele>
        <time>2016-03-09T07:00:01Z</time>
      </trkpt>
      <trkpt lat="45.07931" lon="5.97776">
        <ele>1693.4</ele>
        <time>2016-03-09T07:00:22Z</time>
      </trkpt>
      <trkpt lat="45.07927" lon="5.97764">
        <ele>1697.4</ele>
        <time>2016-03-09T07:00:42Z</time>
      </trkpt>
      <trkpt lat="45.07936" lon="5.97763">
        <ele>1700.4</ele>
        <time>2016-03-09T07:01:00Z</time>
      </trkpt>
      <trkpt lat="45.07945" lon="5.97759">
        <ele>1702.4</ele>
        <time>2016-03-09T07:01:18Z</time>
      </trkpt>
      <trkpt lat="45.07942" lon="5.97745">
        <ele>1706.4</ele>
        <time>2016-03-09T07:01:53Z</time>
      </trkpt>
      <trkpt lat="45.07934" lon="5.97739">
        <ele>1709.4</ele>
        <time>2016-03-09T07:02:12Z</time>
      </trkpt>
      <trkpt lat="45.0793" lon="5.97727">
        <ele>1713.4</ele>
        <time>2016-03-09T07:02:30Z</time>
      </trkpt>
      <trkpt lat="45.07924" lon="5.97717">
        <ele>1715.4</ele>
        <time>2016-03-09T07:02:50Z</time>
      </trkpt>
      <trkpt lat="45.07918" lon="5.97707">
        <ele>1718.4</ele>
        <time>2016-03-09T07:03:10Z</time>
      </trkpt>
      <trkpt lat="45.07927" lon="5.97706">
        <ele>1721.4</ele>
        <time>2016-03-09T07:03:38Z</time>
      </trkpt>
      <trkpt lat="45.07936" lon="5.97705">
        <ele>1722.4</ele>
        <time>2016-03-09T07:03:53Z</time>
      </trkpt>
      <trkpt lat="45.07945" lon="5.977">
        <ele>1724.4</ele>
        <time>2016-03-09T07:04:11Z</time>
      </trkpt>
      <trkpt lat="45.0794" lon="5.97689">
        <ele>1730.4</ele>
        <time>2016-03-09T07:04:49Z</time>
      </trkpt>
      <trkpt lat="45.07932" lon="5.9768">
        <ele>1734.4</ele>
        <time>2016-03-09T07:05:06Z</time>
      </trkpt>
      <trkpt lat="45.07926" lon="5.97671">
        <ele>1735.4</ele>
        <time>2016-03-09T07:05:24Z</time>
      </trkpt>
      <trkpt lat="45.07923" lon="5.97659">
        <ele>1738.4</ele>
        <time>2016-03-09T07:05:41Z</time>
      </trkpt>
      <trkpt lat="45.07932" lon="5.97661">
        <ele>1740.4</ele>
        <time>2016-03-09T07:06:02Z</time>
      </trkpt>
      <trkpt lat="45.07941" lon="5.9766">
        <ele>1740.4</ele>
        <time>2016-03-09T07:06:15Z</time>
      </trkpt>
      <trkpt lat="45.07939" lon="5.97647">
        <ele>1744.4</ele>
        <time>2016-03-09T07:06:47Z</time>
      </trkpt>
      <trkpt lat="45.07943" lon="5.97635">
        <ele>1749.4</ele>
        <time>2016-03-09T07:07:12Z</time>
      </trkpt>
      <trkpt lat="45.0795" lon="5.97627">
        <ele>1752.4</ele>
        <time>2016-03-09T07:07:29Z</time>
      </trkpt>
      <trkpt lat="45.07955" lon="5.97616">
        <ele>1755.4</ele>
        <time>2016-03-09T07:07:48Z</time>
      </trkpt>
      <trkpt lat="45.0796" lon="5.97605">
        <ele>1758.4</ele>
        <time>2016-03-09T07:08:10Z</time>
      </trkpt>
      <trkpt lat="45.07965" lon="5.97594">
        <ele>1762.4</ele>
        <time>2016-03-09T07:08:32Z</time>
      </trkpt>
      <trkpt lat="45.07971" lon="5.97584">
        <ele>1764.4</ele>
        <time>2016-03-09T07:08:50Z</time>
      </trkpt>
      <trkpt lat="45.07962" lon="5.97578">
        <ele>1768.4</ele>
        <time>2016-03-09T07:09:16Z</time>
      </trkpt>
      <trkpt lat="45.07953" lon="5.97578">
        <ele>1771.4</ele>
        <time>2016-03-09T07:09:52Z</time>
      </trkpt>
      <trkpt lat="45.07944" lon="5.97577">
        <ele>1773.4</ele>
        <time>2016-03-09T07:10:13Z</time>
      </trkpt>
      <trkpt lat="45.07938" lon="5.97566">
        <ele>1776.4</ele>
        <time>2016-03-09T07:10:32Z</time>
      </trkpt>
      <trkpt lat="45.07946" lon="5.97559">
        <ele>1778.4</ele>
        <time>2016-03-09T07:11:04Z</time>
      </trkpt>
      <trkpt lat="45.07946" lon="5.97546">
        <ele>1783.4</ele>
        <time>2016-03-09T07:11:30Z</time>
      </trkpt>
      <trkpt lat="45.07942" lon="5.97534">
        <ele>1788.4</ele>
        <time>2016-03-09T07:11:57Z</time>
      </trkpt>
      <trkpt lat="45.07939" lon="5.97521">
        <ele>1789.4</ele>
        <time>2016-03-09T07:12:19Z</time>
      </trkpt>
      <trkpt lat="45.07943" lon="5.97509">
        <ele>1794.4</ele>
        <time>2016-03-09T07:12:45Z</time>
      </trkpt>
      <trkpt lat="45.07949" lon="5.97498">
        <ele>1796.4</ele>
        <time>2016-03-09T07:13:32Z</time>
      </trkpt>
      <trkpt lat="45.07955" lon="5.97488">
        <ele>1800.4</ele>
        <time>2016-03-09T07:13:51Z</time>
      </trkpt>
      <trkpt lat="45.07961" lon="5.97478">
        <ele>1803.4</ele>
        <time>2016-03-09T07:14:09Z</time>
      </trkpt>
      <trkpt lat="45.07967" lon="5.97468">
        <ele>1806.4</ele>
        <time>2016-03-09T07:14:29Z</time>
      </trkpt>
      <trkpt lat="45.07972" lon="5.97456">
        <ele>1809.4</ele>
        <time>2016-03-09T07:14:48Z</time>
      </trkpt>
      <trkpt lat="45.07975" lon="5.97444">
        <ele>1812.4</ele>
        <time>2016-03-09T07:15:08Z</time>
      </trkpt>
      <trkpt lat="45.07976" lon="5.97431">
        <ele>1815.4</ele>
        <time>2016-03-09T07:15:31Z</time>
      </trkpt>
      <trkpt lat="45.07977" lon="5.97418">
        <ele>1818.4</ele>
        <time>2016-03-09T07:15:54Z</time>
      </trkpt>
      <trkpt lat="45.0798" lon="5.97406">
        <ele>1823.4</ele>
        <time>2016-03-09T07:16:15Z</time>
      </trkpt>
      <trkpt lat="45.07987" lon="5.97396">
        <ele>1826.4</ele>
        <time>2016-03-09T07:16:35Z</time>
      </trkpt>
      <trkpt lat="45.07995" lon="5.97388">
        <ele>1829.4</ele>
        <time>2016-03-09T07:16:57Z</time>
      </trkpt>
      <trkpt lat="45.08003" lon="5.97382">
        <ele>1830.4</ele>
        <time>2016-03-09T07:17:12Z</time>
      </trkpt>
      <trkpt lat="45.08011" lon="5.97375">
        <ele>1832.4</ele>
        <time>2016-03-09T07:17:30Z</time>
      </trkpt>
      <trkpt lat="45.08019" lon="5.97368">
        <ele>1833.4</ele>
        <time>2016-03-09T07:17:49Z</time>
      </trkpt>
      <trkpt lat="45.08025" lon="5.97359">
        <ele>1839.4</ele>
        <time>2016-03-09T07:18:11Z</time>
      </trkpt>
      <trkpt lat="45.08032" lon="5.9735">
        <ele>1842.4</ele>
        <time>2016-03-09T07:18:33Z</time>
      </trkpt>
      <trkpt lat="45.08041" lon="5.97353">
        <ele>1843.4</ele>
        <time>2016-03-09T07:19:33Z</time>
      </trkpt>
      <trkpt lat="45.0805" lon="5.97354">
        <ele>1844.4</ele>
        <time>2016-03-09T07:19:47Z</time>
      </trkpt>
      <trkpt lat="45.08048" lon="5.97341">
        <ele>1847.4</ele>
        <time>2016-03-09T07:20:19Z</time>
      </trkpt>
      <trkpt lat="45.08047" lon="5.97328">
        <ele>1855.4</ele>
        <time>2016-03-09T07:21:12Z</time>
      </trkpt>
      <trkpt lat="45.08056" lon="5.97325">
        <ele>1862.4</ele>
        <time>2016-03-09T07:22:43Z</time>
      </trkpt>
      <trkpt lat="45.08064" lon="5.97321">
        <ele>1868.4</ele>
        <time>2016-03-09T07:23:41Z</time>
      </trkpt>
      <trkpt lat="45.08066" lon="5.97308">
        <ele>1877.4</ele>
        <time>2016-03-09T07:24:27Z</time>
      </trkpt>
      <trkpt lat="45.08061" lon="5.97297">
        <ele>1880.4</ele>
        <time>2016-03-09T07:24:49Z</time>
      </trkpt>
      <trkpt lat="45.0807" lon="5.97298">
        <ele>1883.4</ele>
        <time>2016-03-09T07:25:14Z</time>
      </trkpt>
      <trkpt lat="45.08079" lon="5.97295">
        <ele>1887.4</ele>
        <time>2016-03-09T07:25:33Z</time>
      </trkpt>
      <trkpt lat="45.08088" lon="5.97298">
        <ele>1890.4</ele>
        <time>2016-03-09T07:25:56Z</time>
      </trkpt>
      <trkpt lat="45.08097" lon="5.97298">
        <ele>1892.4</ele>
        <time>2016-03-09T07:26:15Z</time>
      </trkpt>
      <trkpt lat="45.08102" lon="5.97287">
        <ele>1895.4</ele>
        <time>2016-03-09T07:26:52Z</time>
      </trkpt>
      <trkpt lat="45.08098" lon="5.97275">
        <ele>1899.4</ele>
        <time>2016-03-09T07:27:15Z</time>
      </trkpt>
      <trkpt lat="45.08095" lon="5.97263">
        <ele>1903.4</ele>
        <time>2016-03-09T07:27:39Z</time>
      </trkpt>
      <trkpt lat="45.08106" lon="5.97261">
        <ele>1907.4</ele>
        <time>2016-03-09T07:28:20Z</time>
      </trkpt>
      <trkpt lat="45.08114" lon="5.97263">
        <ele>1912.4</ele>
        <time>2016-03-09T07:28:38Z</time>
      </trkpt>
      <trkpt lat="45.08116" lon="5.9725">
        <ele>1912.4</ele>
        <time>2016-03-09T07:29:16Z</time>
      </trkpt>
      <trkpt lat="45.08123" lon="5.97243">
        <ele>1918.4</ele>
        <time>2016-03-09T07:29:55Z</time>
      </trkpt>
      <trkpt lat="45.08117" lon="5.97233">
        <ele>1920.4</ele>
        <time>2016-03-09T07:30:19Z</time>
      </trkpt>
      <trkpt lat="45.08111" lon="5.97224">
        <ele>1923.4</ele>
        <time>2016-03-09T07:30:39Z</time>
      </trkpt>
      <trkpt lat="45.0812" lon="5.97222">
        <ele>1930.4</ele>
        <time>2016-03-09T07:31:13Z</time>
      </trkpt>
      <trkpt lat="45.08127" lon="5.97213">
        <ele>1931.4</ele>
        <time>2016-03-09T07:31:47Z</time>
      </trkpt>
      <trkpt lat="45.08135" lon="5.97207">
        <ele>1934.4</ele>
        <time>2016-03-09T07:32:05Z</time>
      </trkpt>
      <trkpt lat="45.08144" lon="5.97203">
        <ele>1938.4</ele>
        <time>2016-03-09T07:32:28Z</time>
      </trkpt>
      <trkpt lat="45.08153" lon="5.97206">
        <ele>1943.4</ele>
        <time>2016-03-09T07:32:50Z</time>
      </trkpt>
      <trkpt lat="45.08162" lon="5.97209">
        <ele>1946.4</ele>
        <time>2016-03-09T07:33:06Z</time>
      </trkpt>
      <trkpt lat="45.08172" lon="5.97211">
        <ele>1949.4</ele>
        <time>2016-03-09T07:33:23Z</time>
      </trkpt>
      <trkpt lat="45.0818" lon="5.97217">
        <ele>1951.4</ele>
        <time>2016-03-09T07:33:40Z</time>
      </trkpt>
      <trkpt lat="45.08189" lon="5.97221">
        <ele>1951.4</ele>
        <time>2016-03-09T07:34:01Z</time>
      </trkpt>
      <trkpt lat="45.08197" lon="5.97226">
        <ele>1952.4</ele>
        <time>2016-03-09T07:34:22Z</time>
      </trkpt>
      <trkpt lat="45.08198" lon="5.97213">
        <ele>1955.4</ele>
        <time>2016-03-09T07:34:45Z</time>
      </trkpt>
      <trkpt lat="45.082" lon="5.972">
        <ele>1960.4</ele>
        <time>2016-03-09T07:35:07Z</time>
      </trkpt>
      <trkpt lat="45.08208" lon="5.97208">
        <ele>1962.4</ele>
        <time>2016-03-09T07:35:37Z</time>
      </trkpt>
      <trkpt lat="45.08216" lon="5.97212">
        <ele>1965.4</ele>
        <time>2016-03-09T07:35:58Z</time>
      </trkpt>
      <trkpt lat="45.08218" lon="5.97198">
        <ele>1969.4</ele>
        <time>2016-03-09T07:36:27Z</time>
      </trkpt>
      <trkpt lat="45.08219" lon="5.97185">
        <ele>1976.4</ele>
        <time>2016-03-09T07:37:41Z</time>
      </trkpt>
      <trkpt lat="45.08222" lon="5.97172">
        <ele>1979.4</ele>
        <time>2016-03-09T07:38:00Z</time>
      </trkpt>
      <trkpt lat="45.08224" lon="5.97159">
        <ele>1980.4</ele>
        <time>2016-03-09T07:38:18Z</time>
      </trkpt>
      <trkpt lat="45.08224" lon="5.97146">
        <ele>1982.4</ele>
        <time>2016-03-09T07:38:40Z</time>
      </trkpt>
      <trkpt lat="45.08225" lon="5.97133">
        <ele>1986.4</ele>
        <time>2016-03-09T07:39:02Z</time>
      </trkpt>
      <trkpt lat="45.08233" lon="5.97138">
        <ele>1988.4</ele>
        <time>2016-03-09T07:39:29Z</time>
      </trkpt>
      <trkpt lat="45.08242" lon="5.97141">
        <ele>1992.4</ele>
        <time>2016-03-09T07:39:53Z</time>
      </trkpt>
      <trkpt lat="45.08251" lon="5.97143">
        <ele>1996.4</ele>
        <time>2016-03-09T07:40:16Z</time>
      </trkpt>
      <trkpt lat="45.08257" lon="5.97133">
        <ele>2002.4</ele>
        <time>2016-03-09T07:40:44Z</time>
      </trkpt>
      <trkpt lat="45.08258" lon="5.97119">
        <ele>2004.4</ele>
        <time>2016-03-09T07:41:05Z</time>
      </trkpt>
      <trkpt lat="45.08265" lon="5.97112">
        <ele>2009.4</ele>
        <time>2016-03-09T07:41:42Z</time>
      </trkpt>
      <trkpt lat="45.08274" lon="5.97115">
        <ele>2013.4</ele>
        <time>2016-03-09T07:42:07Z</time>
      </trkpt>
      <trkpt lat="45.08283" lon="5.97112">
        <ele>2014.4</ele>
        <time>2016-03-09T07:42:38Z</time>
      </trkpt>
      <trkpt lat="45.08283" lon="5.97099">
        <ele>2017.4</ele>
        <time>2016-03-09T07:42:56Z</time>
      </trkpt>
      <trkpt lat="45.08291" lon="5.97103">
        <ele>2025.4</ele>
        <time>2016-03-09T07:43:46Z</time>
      </trkpt>
      <trkpt lat="45.083" lon="5.9711">
        <ele>2030.4</ele>
        <time>2016-03-09T07:44:09Z</time>
      </trkpt>
      <trkpt lat="45.08308" lon="5.97114">
        <ele>2034.4</ele>
        <time>2016-03-09T07:44:33Z</time>
      </trkpt>
      <trkpt lat="45.08317" lon="5.9712">
        <ele>2038.4</ele>
        <time>2016-03-09T07:45:06Z</time>
      </trkpt>
      <trkpt lat="45.0832" lon="5.97108">
        <ele>2041.4</ele>
        <time>2016-03-09T07:45:33Z</time>
      </trkpt>
      <trkpt lat="45.08321" lon="5.97094">
        <ele>2044.4</ele>
        <time>2016-03-09T07:45:53Z</time>
      </trkpt>
      <trkpt lat="45.08322" lon="5.97081">
        <ele>2048.4</ele>
        <time>2016-03-09T07:46:17Z</time>
      </trkpt>
      <trkpt lat="45.08324" lon="5.97068">
        <ele>2051.4</ele>
        <time>2016-03-09T07:46:39Z</time>
      </trkpt>
      <trkpt lat="45.08326" lon="5.97055">
        <ele>2055.4</ele>
        <time>2016-03-09T07:47:00Z</time>
      </trkpt>
      <trkpt lat="45.08327" lon="5.97042">
        <ele>2057.4</ele>
        <time>2016-03-09T07:47:23Z</time>
      </trkpt>
      <trkpt lat="45.0833" lon="5.97028">
        <ele>2060.4</ele>
        <time>2016-03-09T07:47:46Z</time>
      </trkpt>
      <trkpt lat="45.0833" lon="5.97015">
        <ele>2064.4</ele>
        <time>2016-03-09T07:48:07Z</time>
      </trkpt>
      <trkpt lat="45.08329" lon="5.97002">
        <ele>2068.4</ele>
        <time>2016-03-09T07:48:29Z</time>
      </trkpt>
      <trkpt lat="45.08327" lon="5.96989">
        <ele>2072.4</ele>
        <time>2016-03-09T07:48:54Z</time>
      </trkpt>
      <trkpt lat="45.08326" lon="5.96977">
        <ele>2075.4</ele>
        <time>2016-03-09T07:49:17Z</time>
      </trkpt>
      <trkpt lat="45.08329" lon="5.96964">
        <ele>2080.4</ele>
        <time>2016-03-09T07:49:44Z</time>
      </trkpt>
      <trkpt lat="45.08337" lon="5.96958">
        <ele>2084.4</ele>
        <time>2016-03-09T07:50:05Z</time>
      </trkpt>
      <trkpt lat="45.08345" lon="5.96952">
        <ele>2089.4</ele>
        <time>2016-03-09T07:50:31Z</time>
      </trkpt>
      <trkpt lat="45.08353" lon="5.96945">
        <ele>2092.4</ele>
        <time>2016-03-09T07:50:52Z</time>
      </trkpt>
      <trkpt lat="45.08361" lon="5.9694">
        <ele>2094.4</ele>
        <time>2016-03-09T07:51:11Z</time>
      </trkpt>
      <trkpt lat="45.0837" lon="5.96936">
        <ele>2096.4</ele>
        <time>2016-03-09T07:51:36Z</time>
      </trkpt>
      <trkpt lat="45.08379" lon="5.96934">
        <ele>2101.4</ele>
        <time>2016-03-09T07:52:03Z</time>
      </trkpt>
      <trkpt lat="45.08382" lon="5.96922">
        <ele>2107.4</ele>
        <time>2016-03-09T07:52:55Z</time>
      </trkpt>
      <trkpt lat="45.08379" lon="5.9691">
        <ele>2110.4</ele>
        <time>2016-03-09T07:53:19Z</time>
      </trkpt>
      <trkpt lat="45.08385" lon="5.969">
        <ele>2116.4</ele>
        <time>2016-03-09T07:54:07Z</time>
      </trkpt>
      <trkpt lat="45.08394" lon="5.969">
        <ele>2121.4</ele>
        <time>2016-03-09T07:54:33Z</time>
      </trkpt>
      <trkpt lat="45.08401" lon="5.96891">
        <ele>2124.4</ele>
        <time>2016-03-09T07:55:56Z</time>
      </trkpt>
      <trkpt lat="45.08409" lon="5.96884">
        <ele>2129.4</ele>
        <time>2016-03-09T07:56:35Z</time>
      </trkpt>
      <trkpt lat="45.08404" lon="5.96873">
        <ele>2134.4</ele>
        <time>2016-03-09T07:56:59Z</time>
      </trkpt>
      <trkpt lat="45.08407" lon="5.96861">
        <ele>2140.4</ele>
        <time>2016-03-09T07:57:44Z</time>
      </trkpt>
      <trkpt lat="45.08408" lon="5.96848">
        <ele>2143.4</ele>
        <time>2016-03-09T07:58:23Z</time>
      </trkpt>
      <trkpt lat="45.08401" lon="5.96838">
        <ele>2147.4</ele>
        <time>2016-03-09T07:58:49Z</time>
      </trkpt>
      <trkpt lat="45.08407" lon="5.96827">
        <ele>2153.4</ele>
        <time>2016-03-09T07:59:14Z</time>
      </trkpt>
      <trkpt lat="45.084" lon="5.96818">
        <ele>2156.4</ele>
        <time>2016-03-09T07:59:40Z</time>
      </trkpt>
      <trkpt lat="45.08392" lon="5.96811">
        <ele>2158.4</ele>
        <time>2016-03-09T08:00:02Z</time>
      </trkpt>
      <trkpt lat="45.08384" lon="5.96804">
        <ele>2161.4</ele>
        <time>2016-03-09T08:00:24Z</time>
      </trkpt>
      <trkpt lat="45.08377" lon="5.96797">
        <ele>2164.4</ele>
        <time>2016-03-09T08:00:48Z</time>
      </trkpt>
      <trkpt lat="45.08371" lon="5.96786">
        <ele>2168.4</ele>
        <time>2016-03-09T08:01:13Z</time>
      </trkpt>
      <trkpt lat="45.08369" lon="5.96774">
        <ele>2173.4</ele>
        <time>2016-03-09T08:01:36Z</time>
      </trkpt>
      <trkpt lat="45.08377" lon="5.96768">
        <ele>2179.4</ele>
        <time>2016-03-09T08:02:11Z</time>
      </trkpt>
      <trkpt lat="45.08386" lon="5.96765">
        <ele>2183.4</ele>
        <time>2016-03-09T08:02:36Z</time>
      </trkpt>
      <trkpt lat="45.08394" lon="5.96759">
        <ele>2186.4</ele>
        <time>2016-03-09T08:02:53Z</time>
      </trkpt>
      <trkpt lat="45.0839" lon="5.96748">
        <ele>2191.4</ele>
        <time>2016-03-09T08:03:19Z</time>
      </trkpt>
      <trkpt lat="45.08394" lon="5.96735">
        <ele>2197.4</ele>
        <time>2016-03-09T08:03:53Z</time>
      </trkpt>
      <trkpt lat="45.08398" lon="5.96724">
        <ele>2201.4</ele>
        <time>2016-03-09T08:04:18Z</time>
      </trkpt>
      <trkpt lat="45.08393" lon="5.96712">
        <ele>2204.4</ele>
        <time>2016-03-09T08:04:42Z</time>
      </trkpt>
      <trkpt lat="45.08402" lon="5.96706">
        <ele>2209.4</ele>
        <time>2016-03-09T08:05:51Z</time>
      </trkpt>
      <trkpt lat="45.08403" lon="5.96691">
        <ele>2214.4</ele>
        <time>2016-03-09T08:06:29Z</time>
      </trkpt>
      <trkpt lat="45.08406" lon="5.96679">
        <ele>2221.4</ele>
        <time>2016-03-09T08:07:12Z</time>
      </trkpt>
      <trkpt lat="45.08413" lon="5.9667">
        <ele>2224.4</ele>
        <time>2016-03-09T08:07:36Z</time>
      </trkpt>
      <trkpt lat="45.08421" lon="5.96666">
        <ele>2229.4</ele>
        <time>2016-03-09T08:08:00Z</time>
      </trkpt>
      <trkpt lat="45.08428" lon="5.96657">
        <ele>2232.4</ele>
        <time>2016-03-09T08:08:28Z</time>
      </trkpt>
      <trkpt lat="45.08431" lon="5.96645">
        <ele>2234.4</ele>
        <time>2016-03-09T08:08:44Z</time>
      </trkpt>
      <trkpt lat="45.08434" lon="5.96632">
        <ele>2237.4</ele>
        <time>2016-03-09T08:09:02Z</time>
      </trkpt>
      <trkpt lat="45.08439" lon="5.96621">
        <ele>2240.4</ele>
        <time>2016-03-09T08:09:22Z</time>
      </trkpt>
      <trkpt lat="45.08445" lon="5.96611">
        <ele>2241.4</ele>
        <time>2016-03-09T08:09:39Z</time>
      </trkpt>
      <trkpt lat="45.08452" lon="5.96604">
        <ele>2243.4</ele>
        <time>2016-03-09T08:09:56Z</time>
      </trkpt>
      <trkpt lat="45.08459" lon="5.96595">
        <ele>2245.4</ele>
        <time>2016-03-09T08:10:12Z</time>
      </trkpt>
      <trkpt lat="45.08467" lon="5.96587">
        <ele>2247.4</ele>
        <time>2016-03-09T08:10:27Z</time>
      </trkpt>
      <trkpt lat="45.08475" lon="5.9658">
        <ele>2249.4</ele>
        <time>2016-03-09T08:10:41Z</time>
      </trkpt>
      <trkpt lat="45.08482" lon="5.96572">
        <ele>2251.4</ele>
        <time>2016-03-09T08:10:58Z</time>
      </trkpt>
      <trkpt lat="45.0849" lon="5.96565">
        <ele>2253.4</ele>
        <time>2016-03-09T08:11:16Z</time>
      </trkpt>
      <trkpt lat="45.08498" lon="5.96559">
        <ele>2254.4</ele>
        <time>2016-03-09T08:11:34Z</time>
      </trkpt>
      <trkpt lat="45.08507" lon="5.96554">
        <ele>2258.4</ele>
        <time>2016-03-09T08:11:52Z</time>
      </trkpt>
      <trkpt lat="45.08516" lon="5.96549">
        <ele>2261.4</ele>
        <time>2016-03-09T08:12:11Z</time>
      </trkpt>
      <trkpt lat="45.08524" lon="5.96545">
        <ele>2264.4</ele>
        <time>2016-03-09T08:12:34Z</time>
      </trkpt>
      <trkpt lat="45.08533" lon="5.96542">
        <ele>2266.4</ele>
        <time>2016-03-09T08:12:54Z</time>
      </trkpt>
      <trkpt lat="45.08543" lon="5.96542">
        <ele>2270.4</ele>
        <time>2016-03-09T08:13:15Z</time>
      </trkpt>
      <trkpt lat="45.08552" lon="5.96543">
        <ele>2273.4</ele>
        <time>2016-03-09T08:13:38Z</time>
      </trkpt>
      <trkpt lat="45.08561" lon="5.96542">
        <ele>2277.4</ele>
        <time>2016-03-09T08:14:02Z</time>
      </trkpt>
      <trkpt lat="45.0857" lon="5.96542">
        <ele>2280.4</ele>
        <time>2016-03-09T08:14:24Z</time>
      </trkpt>
      <trkpt lat="45.0858" lon="5.96545">
        <ele>2285.4</ele>
        <time>2016-03-09T08:15:10Z</time>
      </trkpt>
      <trkpt lat="45.08582" lon="5.96532">
        <ele>2287.4</ele>
        <time>2016-03-09T08:15:30Z</time>
      </trkpt>
      <trkpt lat="45.08579" lon="5.9652">
        <ele>2291.4</ele>
        <time>2016-03-09T08:15:55Z</time>
      </trkpt>
      <trkpt lat="45.08576" lon="5.96508">
        <ele>2296.4</ele>
        <time>2016-03-09T08:16:18Z</time>
      </trkpt>
      <trkpt lat="45.08583" lon="5.96501">
        <ele>2301.4</ele>
        <time>2016-03-09T08:16:53Z</time>
      </trkpt>
      <trkpt lat="45.08593" lon="5.96501">
        <ele>2307.4</ele>
        <time>2016-03-09T08:17:19Z</time>
      </trkpt>
      <trkpt lat="45.08597" lon="5.96487">
        <ele>2312.4</ele>
        <time>2016-03-09T08:18:00Z</time>
      </trkpt>
      <trkpt lat="45.08594" lon="5.96475">
        <ele>2315.4</ele>
        <time>2016-03-09T08:18:25Z</time>
      </trkpt>
      <trkpt lat="45.086" lon="5.96465">
        <ele>2320.4</ele>
        <time>2016-03-09T08:18:56Z</time>
      </trkpt>
      <trkpt lat="45.08608" lon="5.96461">
        <ele>2323.4</ele>
        <time>2016-03-09T08:19:18Z</time>
      </trkpt>
      <trkpt lat="45.08617" lon="5.96457">
        <ele>2327.4</ele>
        <time>2016-03-09T08:19:42Z</time>
      </trkpt>
      <trkpt lat="45.08622" lon="5.96446">
        <ele>2331.4</ele>
        <time>2016-03-09T08:20:12Z</time>
      </trkpt>
      <trkpt lat="45.08622" lon="5.96433">
        <ele>2334.4</ele>
        <time>2016-03-09T08:20:39Z</time>
      </trkpt>
      <trkpt lat="45.08631" lon="5.96431">
        <ele>2338.4</ele>
        <time>2016-03-09T08:21:00Z</time>
      </trkpt>
      <trkpt lat="45.08644" lon="5.96427">
        <ele>2343.4</ele>
        <time>2016-03-09T08:21:30Z</time>
      </trkpt>
      <trkpt lat="45.08654" lon="5.96426">
        <ele>2345.4</ele>
        <time>2016-03-09T08:21:49Z</time>
      </trkpt>
      <trkpt lat="45.08663" lon="5.96424">
        <ele>2349.4</ele>
        <time>2016-03-09T08:22:06Z</time>
      </trkpt>
      <trkpt lat="45.08673" lon="5.96423">
        <ele>2353.4</ele>
        <time>2016-03-09T08:22:26Z</time>
      </trkpt>
      <trkpt lat="45.08682" lon="5.96418">
        <ele>2355.4</ele>
        <time>2016-03-09T08:22:45Z</time>
      </trkpt>
      <trkpt lat="45.08691" lon="5.96413">
        <ele>2360.4</ele>
        <time>2016-03-09T08:23:06Z</time>
      </trkpt>
      <trkpt lat="45.08691" lon="5.964">
        <ele>2362.4</ele>
        <time>2016-03-09T08:23:24Z</time>
      </trkpt>
      <trkpt lat="45.08693" lon="5.96388">
        <ele>2367.4</ele>
        <time>2016-03-09T08:23:54Z</time>
      </trkpt>
      <trkpt lat="45.08702" lon="5.96384">
        <ele>2371.4</ele>
        <time>2016-03-09T08:24:47Z</time>
      </trkpt>
      <trkpt lat="45.08708" lon="5.96375">
        <ele>2375.4</ele>
        <time>2016-03-09T08:25:41Z</time>
      </trkpt>
      <trkpt lat="45.08709" lon="5.96362">
        <ele>2380.4</ele>
        <time>2016-03-09T08:26:10Z</time>
      </trkpt>
      <trkpt lat="45.0871" lon="5.96349">
        <ele>2385.4</ele>
        <time>2016-03-09T08:26:34Z</time>
      </trkpt>
      <trkpt lat="45.08717" lon="5.96341">
        <ele>2388.4</ele>
        <time>2016-03-09T08:26:54Z</time>
      </trkpt>
      <trkpt lat="45.08725" lon="5.96334">
        <ele>2391.4</ele>
        <time>2016-03-09T08:27:12Z</time>
      </trkpt>
      <trkpt lat="45.08733" lon="5.96328">
        <ele>2394.4</ele>
        <time>2016-03-09T08:27:31Z</time>
      </trkpt>
      <trkpt lat="45.08741" lon="5.96322">
        <ele>2396.4</ele>
        <time>2016-03-09T08:27:51Z</time>
      </trkpt>
      <trkpt lat="45.0875" lon="5.96317">
        <ele>2399.4</ele>
        <time>2016-03-09T08:28:13Z</time>
      </trkpt>
      <trkpt lat="45.08758" lon="5.96311">
        <ele>2403.4</ele>
        <time>2016-03-09T08:28:33Z</time>
      </trkpt>
      <trkpt lat="45.08767" lon="5.96306">
        <ele>2407.4</ele>
        <time>2016-03-09T08:29:03Z</time>
      </trkpt>
      <trkpt lat="45.08774" lon="5.96294">
        <ele>2412.4</ele>
        <time>2016-03-09T08:29:25Z</time>
      </trkpt>
      <trkpt lat="45.08782" lon="5.96287">
        <ele>2414.4</ele>
        <time>2016-03-09T08:29:41Z</time>
      </trkpt>
      <trkpt lat="45.08791" lon="5.96288">
        <ele>2416.4</ele>
        <time>2016-03-09T08:30:01Z</time>
      </trkpt>
      <trkpt lat="45.08801" lon="5.96292">
        <ele>2420.4</ele>
        <time>2016-03-09T08:30:25Z</time>
      </trkpt>
      <trkpt lat="45.08809" lon="5.96299">
        <ele>2425.4</ele>
        <time>2016-03-09T08:30:46Z</time>
      </trkpt>
      <trkpt lat="45.08814" lon="5.96288">
        <ele>2429.4</ele>
        <time>2016-03-09T08:31:11Z</time>
      </trkpt>
      <trkpt lat="45.08818" lon="5.96277">
        <ele>2431.4</ele>
        <time>2016-03-09T08:31:28Z</time>
      </trkpt>
      <trkpt lat="45.08823" lon="5.96266">
        <ele>2433.4</ele>
        <time>2016-03-09T08:31:49Z</time>
      </trkpt>
      <trkpt lat="45.08828" lon="5.96277">
        <ele>2438.4</ele>
        <time>2016-03-09T08:32:14Z</time>
      </trkpt>
      <trkpt lat="45.08837" lon="5.96282">
        <ele>2442.4</ele>
        <time>2016-03-09T08:32:50Z</time>
      </trkpt>
      <trkpt lat="45.08845" lon="5.96285">
        <ele>2446.4</ele>
        <time>2016-03-09T08:33:22Z</time>
      </trkpt>
      <trkpt lat="45.08854" lon="5.9628">
        <ele>2451.4</ele>
        <time>2016-03-09T08:33:51Z</time>
      </trkpt>
      <trkpt lat="45.08859" lon="5.96269">
        <ele>2455.4</ele>
        <time>2016-03-09T08:34:14Z</time>
      </trkpt>
      <trkpt lat="45.08862" lon="5.96257">
        <ele>2459.4</ele>
        <time>2016-03-09T08:34:57Z</time>
      </trkpt>
      <trkpt lat="45.08866" lon="5.96245">
        <ele>2461.4</ele>
        <time>2016-03-09T08:35:16Z</time>
      </trkpt>
      <trkpt lat="45.08868" lon="5.96232">
        <ele>2465.4</ele>
        <time>2016-03-09T08:35:46Z</time>
      </trkpt>
      <trkpt lat="45.08871" lon="5.96219">
        <ele>2467.4</ele>
        <time>2016-03-09T08:36:04Z</time>
      </trkpt>
      <trkpt lat="45.08875" lon="5.96203">
        <ele>2471.4</ele>
        <time>2016-03-09T08:36:28Z</time>
      </trkpt>
      <trkpt lat="45.08878" lon="5.9619">
        <ele>2474.4</ele>
        <time>2016-03-09T08:36:46Z</time>
      </trkpt>
      <trkpt lat="45.0888" lon="5.96177">
        <ele>2476.4</ele>
        <time>2016-03-09T08:37:03Z</time>
      </trkpt>
      <trkpt lat="45.08883" lon="5.96164">
        <ele>2479.4</ele>
        <time>2016-03-09T08:37:22Z</time>
      </trkpt>
      <trkpt lat="45.08883" lon="5.96151">
        <ele>2483.4</ele>
        <time>2016-03-09T08:37:52Z</time>
      </trkpt>
      <trkpt lat="45.08886" lon="5.96138">
        <ele>2485.4</ele>
        <time>2016-03-09T08:38:16Z</time>
      </trkpt>
      <trkpt lat="45.08893" lon="5.96132">
        <ele>2485.4</ele>
        <time>2016-03-09T08:38:40Z</time>
      </trkpt>
      <trkpt lat="45.08895" lon="5.96146">
        <ele>2485.4</ele>
        <time>2016-03-09T08:50:25Z</time>
      </trkpt>
      <trkpt lat="45.08895" lon="5.96161">
        <ele>2483.4</ele>
        <time>2016-03-09T08:50:36Z</time>
      </trkpt>
      <trkpt lat="45.08897" lon="5.96175">
        <ele>2481.4</ele>
        <time>2016-03-09T08:50:48Z</time>
      </trkpt>
      <trkpt lat="45.08897" lon="5.9619">
        <ele>2479.4</ele>
        <time>2016-03-09T08:50:52Z</time>
      </trkpt>
      <trkpt lat="45.08897" lon="5.96204">
        <ele>2478.4</ele>
        <time>2016-03-09T08:50:55Z</time>
      </trkpt>
      <trkpt lat="45.08895" lon="5.96216">
        <ele>2476.4</ele>
        <time>2016-03-09T08:50:59Z</time>
      </trkpt>
      <trkpt lat="45.08892" lon="5.96231">
        <ele>2472.4</ele>
        <time>2016-03-09T08:51:04Z</time>
      </trkpt>
      <trkpt lat="45.08895" lon="5.96244">
        <ele>2472.4</ele>
        <time>2016-03-09T08:51:18Z</time>
      </trkpt>
      <trkpt lat="45.08896" lon="5.96258">
        <ele>2471.4</ele>
        <time>2016-03-09T08:51:37Z</time>
      </trkpt>
      <trkpt lat="45.08898" lon="5.96271">
        <ele>2470.4</ele>
        <time>2016-03-09T08:51:58Z</time>
      </trkpt>
      <trkpt lat="45.08899" lon="5.96284">
        <ele>2469.4</ele>
        <time>2016-03-09T08:52:16Z</time>
      </trkpt>
      <trkpt lat="45.08901" lon="5.96297">
        <ele>2469.4</ele>
        <time>2016-03-09T08:52:39Z</time>
      </trkpt>
      <trkpt lat="45.08903" lon="5.96309">
        <ele>2470.4</ele>
        <time>2016-03-09T08:52:57Z</time>
      </trkpt>
      <trkpt lat="45.08905" lon="5.96323">
        <ele>2470.4</ele>
        <time>2016-03-09T08:53:15Z</time>
      </trkpt>
      <trkpt lat="45.08907" lon="5.96336">
        <ele>2469.4</ele>
        <time>2016-03-09T08:53:31Z</time>
      </trkpt>
      <trkpt lat="45.08904" lon="5.96348">
        <ele>2468.4</ele>
        <time>2016-03-09T08:53:46Z</time>
      </trkpt>
      <trkpt lat="45.08897" lon="5.96359">
        <ele>2467.4</ele>
        <time>2016-03-09T08:53:54Z</time>
      </trkpt>
      <trkpt lat="45.08895" lon="5.96372">
        <ele>2462.4</ele>
        <time>2016-03-09T08:53:57Z</time>
      </trkpt>
      <trkpt lat="45.08896" lon="5.96386">
        <ele>2458.4</ele>
        <time>2016-03-09T08:54:00Z</time>
      </trkpt>
      <trkpt lat="45.08899" lon="5.964">
        <ele>2455.4</ele>
        <time>2016-03-09T08:54:04Z</time>
      </trkpt>
      <trkpt lat="45.08901" lon="5.96412">
        <ele>2453.4</ele>
        <time>2016-03-09T08:54:09Z</time>
      </trkpt>
      <trkpt lat="45.0891" lon="5.96414">
        <ele>2446.4</ele>
        <time>2016-03-09T09:03:32Z</time>
      </trkpt>
      <trkpt lat="45.0892" lon="5.96408">
        <ele>2437.4</ele>
        <time>2016-03-09T09:08:33Z</time>
      </trkpt>
      <trkpt lat="45.08925" lon="5.96394">
        <ele>2429.4</ele>
        <time>2016-03-09T09:09:19Z</time>
      </trkpt>
      <trkpt lat="45.08936" lon="5.96395">
        <ele>2432.4</ele>
        <time>2016-03-09T09:11:02Z</time>
      </trkpt>
      <trkpt lat="45.08938" lon="5.96381">
        <ele>2424.4</ele>
        <time>2016-03-09T09:16:17Z</time>
      </trkpt>
      <trkpt lat="45.08923" lon="5.96382">
        <ele>2414.4</ele>
        <time>2016-03-09T09:16:29Z</time>
      </trkpt>
      <trkpt lat="45.08934" lon="5.96382">
        <ele>2404.4</ele>
        <time>2016-03-09T09:17:21Z</time>
      </trkpt>
      <trkpt lat="45.08943" lon="5.96385">
        <ele>2401.4</ele>
        <time>2016-03-09T09:17:28Z</time>
      </trkpt>
      <trkpt lat="45.08937" lon="5.96374">
        <ele>2397.4</ele>
        <time>2016-03-09T09:17:33Z</time>
      </trkpt>
      <trkpt lat="45.08946" lon="5.96378">
        <ele>2396.4</ele>
        <time>2016-03-09T09:17:48Z</time>
      </trkpt>
      <trkpt lat="45.08949" lon="5.96365">
        <ele>2361.4</ele>
        <time>2016-03-09T09:18:28Z</time>
      </trkpt>
      <trkpt lat="45.08964" lon="5.96368">
        <ele>2358.4</ele>
        <time>2016-03-09T09:18:33Z</time>
      </trkpt>
      <trkpt lat="45.08977" lon="5.96371">
        <ele>2364.4</ele>
        <time>2016-03-09T09:18:51Z</time>
      </trkpt>
      <trkpt lat="45.08987" lon="5.96375">
        <ele>2374.4</ele>
        <time>2016-03-09T09:18:53Z</time>
      </trkpt>
      <trkpt lat="45.08996" lon="5.96379">
        <ele>2387.4</ele>
        <time>2016-03-09T09:18:57Z</time>
      </trkpt>
      <trkpt lat="45.09006" lon="5.96375">
        <ele>2407.4</ele>
        <time>2016-03-09T09:19:05Z</time>
      </trkpt>
      <trkpt lat="45.09016" lon="5.96376">
        <ele>2420.4</ele>
        <time>2016-03-09T09:19:07Z</time>
      </trkpt>
      <trkpt lat="45.09025" lon="5.96373">
        <ele>2432.4</ele>
        <time>2016-03-09T09:19:11Z</time>
      </trkpt>
      <trkpt lat="45.09034" lon="5.96368">
        <ele>2449.4</ele>
        <time>2016-03-09T09:19:16Z</time>
      </trkpt>
      <trkpt lat="45.09042" lon="5.9636">
        <ele>2469.4</ele>
        <time>2016-03-09T09:19:26Z</time>
      </trkpt>
      <trkpt lat="45.09049" lon="5.96352">
        <ele>2489.4</ele>
        <time>2016-03-09T09:19:39Z</time>
      </trkpt>
      <trkpt lat="45.09057" lon="5.96347">
        <ele>2510.4</ele>
        <time>2016-03-09T09:20:17Z</time>
      </trkpt>
      <trkpt lat="45.09049" lon="5.96341">
        <ele>2501.4</ele>
        <time>2016-03-09T09:22:24Z</time>
      </trkpt>
      <trkpt lat="45.0904" lon="5.96343">
        <ele>2482.4</ele>
        <time>2016-03-09T09:22:52Z</time>
      </trkpt>
      <trkpt lat="45.09036" lon="5.96331">
        <ele>2472.4</ele>
        <time>2016-03-09T09:23:23Z</time>
      </trkpt>
      <trkpt lat="45.09029" lon="5.96339">
        <ele>2458.4</ele>
        <time>2016-03-09T09:24:06Z</time>
      </trkpt>
      <trkpt lat="45.09021" lon="5.96326">
        <ele>2444.4</ele>
        <time>2016-03-09T09:25:05Z</time>
      </trkpt>
      <trkpt lat="45.09024" lon="5.96314">
        <ele>2442.4</ele>
        <time>2016-03-09T09:25:33Z</time>
      </trkpt>
      <trkpt lat="45.09024" lon="5.96301">
        <ele>2448.4</ele>
        <time>2016-03-09T09:26:10Z</time>
      </trkpt>
      <trkpt lat="45.09009" lon="5.96303">
        <ele>2448.4</ele>
        <time>2016-03-09T09:26:17Z</time>
      </trkpt>
      <trkpt lat="45.08988" lon="5.96309">
        <ele>2452.4</ele>
        <time>2016-03-09T09:26:19Z</time>
      </trkpt>
      <trkpt lat="45.08976" lon="5.96312">
        <ele>2453.4</ele>
        <time>2016-03-09T09:26:20Z</time>
      </trkpt>
      <trkpt lat="45.08985" lon="5.96314">
        <ele>2453.4</ele>
        <time>2016-03-09T09:26:22Z</time>
      </trkpt>
      <trkpt lat="45.08994" lon="5.96309">
        <ele>2454.4</ele>
        <time>2016-03-09T09:26:32Z</time>
      </trkpt>
      <trkpt lat="45.08996" lon="5.96296">
        <ele>2466.4</ele>
        <time>2016-03-09T09:26:44Z</time>
      </trkpt>
      <trkpt lat="45.09" lon="5.96284">
        <ele>2497.4</ele>
        <time>2016-03-09T09:27:21Z</time>
      </trkpt>
      <trkpt lat="45.09003" lon="5.96272">
        <ele>2522.4</ele>
        <time>2016-03-09T09:27:43Z</time>
      </trkpt>
      <trkpt lat="45.0901" lon="5.96256">
        <ele>2535.4</ele>
        <time>2016-03-09T09:27:51Z</time>
      </trkpt>
      <trkpt lat="45.09013" lon="5.96272">
        <ele>2543.4</ele>
        <time>2016-03-09T09:28:11Z</time>
      </trkpt>
      <trkpt lat="45.09016" lon="5.96259">
        <ele>2557.4</ele>
        <time>2016-03-09T09:28:19Z</time>
      </trkpt>
      <trkpt lat="45.09019" lon="5.96244">
        <ele>2563.4</ele>
        <time>2016-03-09T09:28:23Z</time>
      </trkpt>
      <trkpt lat="45.09023" lon="5.96231">
        <ele>2569.4</ele>
        <time>2016-03-09T09:28:30Z</time>
      </trkpt>
      <trkpt lat="45.09025" lon="5.96215">
        <ele>2571.4</ele>
        <time>2016-03-09T09:28:35Z</time>
      </trkpt>
      <trkpt lat="45.09024" lon="5.96228">
        <ele>2569.4</ele>
        <time>2016-03-09T09:28:36Z</time>
      </trkpt>
      <trkpt lat="45.0902" lon="5.96248">
        <ele>2558.4</ele>
        <time>2016-03-09T09:28:37Z</time>
      </trkpt>
      <trkpt lat="45.09021" lon="5.96263">
        <ele>2569.4</ele>
        <time>2016-03-09T09:28:45Z</time>
      </trkpt>
      <trkpt lat="45.09031" lon="5.96279">
        <ele>2557.4</ele>
        <time>2016-03-09T09:28:57Z</time>
      </trkpt>
      <trkpt lat="45.0904" lon="5.96284">
        <ele>2554.4</ele>
        <time>2016-03-09T09:29:04Z</time>
      </trkpt>
      <trkpt lat="45.09047" lon="5.96291">
        <ele>2550.4</ele>
        <time>2016-03-09T09:29:12Z</time>
      </trkpt>
      <trkpt lat="45.09056" lon="5.96293">
        <ele>2548.4</ele>
        <time>2016-03-09T09:29:21Z</time>
      </trkpt>
      <trkpt lat="45.09066" lon="5.96285">
        <ele>2551.4</ele>
        <time>2016-03-09T09:29:43Z</time>
      </trkpt>
      <trkpt lat="45.09073" lon="5.96296">
        <ele>2550.4</ele>
        <time>2016-03-09T09:29:57Z</time>
      </trkpt>
      <trkpt lat="45.09083" lon="5.96297">
        <ele>2554.4</ele>
        <time>2016-03-09T09:30:15Z</time>
      </trkpt>
      <trkpt lat="45.09081" lon="5.96278">
        <ele>2564.4</ele>
        <time>2016-03-09T09:30:26Z</time>
      </trkpt>
      <trkpt lat="45.09077" lon="5.96266">
        <ele>2574.4</ele>
        <time>2016-03-09T09:30:32Z</time>
      </trkpt>
      <trkpt lat="45.09085" lon="5.96279">
        <ele>2561.4</ele>
        <time>2016-03-09T09:30:35Z</time>
      </trkpt>
      <trkpt lat="45.0908" lon="5.96267">
        <ele>2566.4</ele>
        <time>2016-03-09T09:30:42Z</time>
      </trkpt>
      <trkpt lat="45.09072" lon="5.96259">
        <ele>2572.4</ele>
        <time>2016-03-09T09:30:47Z</time>
      </trkpt>
      <trkpt lat="45.09088" lon="5.96274">
        <ele>2553.4</ele>
        <time>2016-03-09T09:30:53Z</time>
      </trkpt>
      <trkpt lat="45.0908" lon="5.96266">
        <ele>2556.4</ele>
        <time>2016-03-09T09:31:08Z</time>
      </trkpt>
      <trkpt lat="45.09088" lon="5.96275">
        <ele>2551.4</ele>
        <time>2016-03-09T09:31:20Z</time>
      </trkpt>
      <trkpt lat="45.09079" lon="5.9626">
        <ele>2547.4</ele>
        <time>2016-03-09T09:31:30Z</time>
      </trkpt>
      <trkpt lat="45.0907" lon="5.96253">
        <ele>2547.4</ele>
        <time>2016-03-09T09:31:32Z</time>
      </trkpt>
      <trkpt lat="45.09082" lon="5.9627">
        <ele>2536.4</ele>
        <time>2016-03-09T09:31:35Z</time>
      </trkpt>
      <trkpt lat="45.09096" lon="5.96279">
        <ele>2534.4</ele>
        <time>2016-03-09T09:31:41Z</time>
      </trkpt>
      <trkpt lat="45.09101" lon="5.96268">
        <ele>2536.4</ele>
        <time>2016-03-09T09:31:46Z</time>
      </trkpt>
      <trkpt lat="45.09098" lon="5.96255">
        <ele>2529.4</ele>
        <time>2016-03-09T09:31:59Z</time>
      </trkpt>
      <trkpt lat="45.09105" lon="5.96263">
        <ele>2519.4</ele>
        <time>2016-03-09T09:32:03Z</time>
      </trkpt>
      <trkpt lat="45.09112" lon="5.9628">
        <ele>2508.4</ele>
        <time>2016-03-09T09:32:06Z</time>
      </trkpt>
      <trkpt lat="45.0912" lon="5.96287">
        <ele>2513.4</ele>
        <time>2016-03-09T09:32:15Z</time>
      </trkpt>
      <trkpt lat="45.09108" lon="5.9629">
        <ele>2484.4</ele>
        <time>2016-03-09T09:33:02Z</time>
      </trkpt>
      <trkpt lat="45.09091" lon="5.96285">
        <ele>2486.4</ele>
        <time>2016-03-09T09:33:04Z</time>
      </trkpt>
      <trkpt lat="45.09104" lon="5.96286">
        <ele>2490.4</ele>
        <time>2016-03-09T09:33:08Z</time>
      </trkpt>
      <trkpt lat="45.09097" lon="5.96277">
        <ele>2502.4</ele>
        <time>2016-03-09T09:33:23Z</time>
      </trkpt>
      <trkpt lat="45.0908" lon="5.96275">
        <ele>2503.4</ele>
        <time>2016-03-09T09:33:25Z</time>
      </trkpt>
      <trkpt lat="45.09056" lon="5.96267">
        <ele>2504.4</ele>
        <time>2016-03-09T09:33:26Z</time>
      </trkpt>
      <trkpt lat="45.0907" lon="5.96277">
        <ele>2502.4</ele>
        <time>2016-03-09T09:33:29Z</time>
      </trkpt>
      <trkpt lat="45.09083" lon="5.9629">
        <ele>2499.4</ele>
        <time>2016-03-09T09:33:31Z</time>
      </trkpt>
      <trkpt lat="45.09095" lon="5.96297">
        <ele>2492.4</ele>
        <time>2016-03-09T09:33:37Z</time>
      </trkpt>
      <trkpt lat="45.09104" lon="5.96294">
        <ele>2486.4</ele>
        <time>2016-03-09T09:33:48Z</time>
      </trkpt>
      <trkpt lat="45.09114" lon="5.96296">
        <ele>2483.4</ele>
        <time>2016-03-09T09:33:53Z</time>
      </trkpt>
      <trkpt lat="45.09123" lon="5.96296">
        <ele>2479.4</ele>
        <time>2016-03-09T09:33:58Z</time>
      </trkpt>
      <trkpt lat="45.09133" lon="5.96297">
        <ele>2473.4</ele>
        <time>2016-03-09T09:34:07Z</time>
      </trkpt>
      <trkpt lat="45.09123" lon="5.96292">
        <ele>2479.4</ele>
        <time>2016-03-09T09:34:26Z</time>
      </trkpt>
      <trkpt lat="45.09132" lon="5.96298">
        <ele>2474.4</ele>
        <time>2016-03-09T09:34:56Z</time>
      </trkpt>
      <trkpt lat="45.09117" lon="5.96294">
        <ele>2476.4</ele>
        <time>2016-03-09T09:35:03Z</time>
      </trkpt>
      <trkpt lat="45.09107" lon="5.96292">
        <ele>2478.4</ele>
        <time>2016-03-09T09:35:04Z</time>
      </trkpt>
      <trkpt lat="45.09096" lon="5.9629">
        <ele>2479.4</ele>
        <time>2016-03-09T09:35:05Z</time>
      </trkpt>
      <trkpt lat="45.0908" lon="5.96286">
        <ele>2479.4</ele>
        <time>2016-03-09T09:35:06Z</time>
      </trkpt>
      <trkpt lat="45.09088" lon="5.96292">
        <ele>2463.4</ele>
        <time>2016-03-09T09:35:28Z</time>
      </trkpt>
      <trkpt lat="45.09098" lon="5.96294">
        <ele>2451.4</ele>
        <time>2016-03-09T09:35:46Z</time>
      </trkpt>
      <trkpt lat="45.09107" lon="5.96299">
        <ele>2445.4</ele>
        <time>2016-03-09T09:36:01Z</time>
      </trkpt>
      <trkpt lat="45.09114" lon="5.96308">
        <ele>2438.4</ele>
        <time>2016-03-09T09:36:07Z</time>
      </trkpt>
      <trkpt lat="45.09103" lon="5.96302">
        <ele>2444.4</ele>
        <time>2016-03-09T09:36:22Z</time>
      </trkpt>
      <trkpt lat="45.09091" lon="5.96297">
        <ele>2449.4</ele>
        <time>2016-03-09T09:36:25Z</time>
      </trkpt>
      <trkpt lat="45.09081" lon="5.96296">
        <ele>2460.4</ele>
        <time>2016-03-09T09:36:35Z</time>
      </trkpt>
      <trkpt lat="45.09091" lon="5.963">
        <ele>2462.4</ele>
        <time>2016-03-09T09:36:56Z</time>
      </trkpt>
      <trkpt lat="45.09099" lon="5.96308">
        <ele>2461.4</ele>
        <time>2016-03-09T09:37:03Z</time>
      </trkpt>
      <trkpt lat="45.09089" lon="5.96304">
        <ele>2469.4</ele>
        <time>2016-03-09T09:37:13Z</time>
      </trkpt>
      <trkpt lat="45.09078" lon="5.96301">
        <ele>2472.4</ele>
        <time>2016-03-09T09:37:20Z</time>
      </trkpt>
      <trkpt lat="45.09069" lon="5.96298">
        <ele>2476.4</ele>
        <time>2016-03-09T09:37:25Z</time>
      </trkpt>
      <trkpt lat="45.09078" lon="5.96298">
        <ele>2472.4</ele>
        <time>2016-03-09T09:37:52Z</time>
      </trkpt>
      <trkpt lat="45.09088" lon="5.963">
        <ele>2465.4</ele>
        <time>2016-03-09T09:37:59Z</time>
      </trkpt>
      <trkpt lat="45.09081" lon="5.96293">
        <ele>2465.4</ele>
        <time>2016-03-09T09:38:11Z</time>
      </trkpt>
      <trkpt lat="45.09083" lon="5.96306">
        <ele>2459.4</ele>
        <time>2016-03-09T09:38:28Z</time>
      </trkpt>
      <trkpt lat="45.09073" lon="5.96312">
        <ele>2378.4</ele>
        <time>2016-03-09T09:39:46Z</time>
      </trkpt>
      <trkpt lat="45.09066" lon="5.96319">
        <ele>2364.4</ele>
        <time>2016-03-09T09:42:10Z</time>
      </trkpt>
      <trkpt lat="45.09056" lon="5.9632">
        <ele>2345.4</ele>
        <time>2016-03-09T09:42:40Z</time>
      </trkpt>
      <trkpt lat="45.09047" lon="5.96315">
        <ele>2343.4</ele>
        <time>2016-03-09T09:42:53Z</time>
      </trkpt>
      <trkpt lat="45.09056" lon="5.96321">
        <ele>2343.4</ele>
        <time>2016-03-09T09:42:59Z</time>
      </trkpt>
      <trkpt lat="45.09067" lon="5.96324">
        <ele>2353.4</ele>
        <time>2016-03-09T09:44:24Z</time>
      </trkpt>
      <trkpt lat="45.09058" lon="5.96322">
        <ele>2345.4</ele>
        <time>2016-03-09T09:49:22Z</time>
      </trkpt>
      <trkpt lat="45.09048" lon="5.96328">
        <ele>2329.4</ele>
        <time>2016-03-09T09:54:03Z</time>
      </trkpt>
      <trkpt lat="45.09041" lon="5.96319">
        <ele>2332.4</ele>
        <time>2016-03-09T09:55:08Z</time>
      </trkpt>
      <trkpt lat="45.09039" lon="5.96306">
        <ele>2333.4</ele>
        <time>2016-03-09T10:05:32Z</time>
      </trkpt>
      <trkpt lat="45.09045" lon="5.96319">
        <ele>2329.4</ele>
        <time>2016-03-09T10:06:33Z</time>
      </trkpt>
      <trkpt lat="45.09052" lon="5.96327">
        <ele>2321.4</ele>
        <time>2016-03-09T10:07:07Z</time>
      </trkpt>
      <trkpt lat="45.0905" lon="5.96313">
        <ele>2326.4</ele>
        <time>2016-03-09T10:10:18Z</time>
      </trkpt>
      <trkpt lat="45.09057" lon="5.96322">
        <ele>2313.4</ele>
        <time>2016-03-09T10:11:55Z</time>
      </trkpt>
      <trkpt lat="45.09067" lon="5.96328">
        <ele>2287.4</ele>
        <time>2016-03-09T10:16:14Z</time>
      </trkpt>
      <trkpt lat="45.09075" lon="5.96335">
        <ele>2254.4</ele>
        <time>2016-03-09T10:23:13Z</time>
      </trkpt>
      <trkpt lat="45.09082" lon="5.96356">
        <ele>2245.4</ele>
        <time>2016-03-09T10:25:49Z</time>
      </trkpt>
      <trkpt lat="45.0908" lon="5.96344">
        <ele>2246.4</ele>
        <time>2016-03-09T10:27:23Z</time>
      </trkpt>
      <trkpt lat="45.09089" lon="5.9635">
        <ele>2230.4</ele>
        <time>2016-03-09T10:32:07Z</time>
      </trkpt>
      <trkpt lat="45.09082" lon="5.96341">
        <ele>2224.4</ele>
        <time>2016-03-09T10:34:33Z</time>
      </trkpt>
      <trkpt lat="45.09091" lon="5.96353">
        <ele>2224.4</ele>
        <time>2016-03-09T10:37:19Z</time>
      </trkpt>
      <trkpt lat="45.0909" lon="5.96369">
        <ele>2223.4</ele>
        <time>2016-03-09T10:37:25Z</time>
      </trkpt>
      <trkpt lat="45.09093" lon="5.96357">
        <ele>2227.4</ele>
        <time>2016-03-09T10:37:33Z</time>
      </trkpt>
      <trkpt lat="45.09092" lon="5.96344">
        <ele>2225.4</ele>
        <time>2016-03-09T10:37:39Z</time>
      </trkpt>
      <trkpt lat="45.09102" lon="5.96339">
        <ele>2199.4</ele>
        <time>2016-03-09T10:38:56Z</time>
      </trkpt>
      <trkpt lat="45.09104" lon="5.96327">
        <ele>2191.4</ele>
        <time>2016-03-09T10:39:31Z</time>
      </trkpt>
      <trkpt lat="45.09109" lon="5.96314">
        <ele>2186.4</ele>
        <time>2016-03-09T10:40:32Z</time>
      </trkpt>
      <trkpt lat="45.0912" lon="5.96321">
        <ele>2183.4</ele>
        <time>2016-03-09T10:40:39Z</time>
      </trkpt>
      <trkpt lat="45.0913" lon="5.96318">
        <ele>2174.4</ele>
        <time>2016-03-09T10:40:53Z</time>
      </trkpt>
      <trkpt lat="45.09141" lon="5.96324">
        <ele>2172.4</ele>
        <time>2016-03-09T10:41:01Z</time>
      </trkpt>
      <trkpt lat="45.09151" lon="5.96322">
        <ele>2170.4</ele>
        <time>2016-03-09T10:41:04Z</time>
      </trkpt>
      <trkpt lat="45.0916" lon="5.96328">
        <ele>2168.4</ele>
        <time>2016-03-09T10:41:07Z</time>
      </trkpt>
      <trkpt lat="45.09169" lon="5.96329">
        <ele>2141.4</ele>
        <time>2016-03-09T10:41:34Z</time>
      </trkpt>
      <trkpt lat="45.09178" lon="5.96323">
        <ele>2127.4</ele>
        <time>2016-03-09T10:41:49Z</time>
      </trkpt>
      <trkpt lat="45.09187" lon="5.96324">
        <ele>2108.4</ele>
        <time>2016-03-09T10:42:19Z</time>
      </trkpt>
      <trkpt lat="45.09196" lon="5.9632">
        <ele>2096.4</ele>
        <time>2016-03-09T10:43:06Z</time>
      </trkpt>
      <trkpt lat="45.09205" lon="5.96323">
        <ele>2096.4</ele>
        <time>2016-03-09T10:43:10Z</time>
      </trkpt>
      <trkpt lat="45.09214" lon="5.9632">
        <ele>2090.4</ele>
        <time>2016-03-09T10:43:21Z</time>
      </trkpt>
      <trkpt lat="45.09223" lon="5.96327">
        <ele>2082.4</ele>
        <time>2016-03-09T10:45:11Z</time>
      </trkpt>
      <trkpt lat="45.09233" lon="5.96324">
        <ele>2082.4</ele>
        <time>2016-03-09T10:45:15Z</time>
      </trkpt>
      <trkpt lat="45.09243" lon="5.96327">
        <ele>2078.4</ele>
        <time>2016-03-09T10:45:21Z</time>
      </trkpt>
      <trkpt lat="45.09253" lon="5.96328">
        <ele>2074.4</ele>
        <time>2016-03-09T10:45:25Z</time>
      </trkpt>
      <trkpt lat="45.0926" lon="5.96319">
        <ele>2072.4</ele>
        <time>2016-03-09T10:45:29Z</time>
      </trkpt>
      <trkpt lat="45.0927" lon="5.96317">
        <ele>2068.4</ele>
        <time>2016-03-09T10:45:33Z</time>
      </trkpt>
      <trkpt lat="45.09279" lon="5.96312">
        <ele>2059.4</ele>
        <time>2016-03-09T10:45:41Z</time>
      </trkpt>
      <trkpt lat="45.09287" lon="5.96306">
        <ele>2053.4</ele>
        <time>2016-03-09T10:45:50Z</time>
      </trkpt>
      <trkpt lat="45.09294" lon="5.96296">
        <ele>2013.4</ele>
        <time>2016-03-09T10:46:27Z</time>
      </trkpt>
      <trkpt lat="45.09304" lon="5.963">
        <ele>2014.4</ele>
        <time>2016-03-09T10:46:35Z</time>
      </trkpt>
      <trkpt lat="45.09313" lon="5.96304">
        <ele>2009.4</ele>
        <time>2016-03-09T10:46:44Z</time>
      </trkpt>
      <trkpt lat="45.09323" lon="5.96306">
        <ele>2007.4</ele>
        <time>2016-03-09T10:46:51Z</time>
      </trkpt>
      <trkpt lat="45.09335" lon="5.96307">
        <ele>2002.4</ele>
        <time>2016-03-09T10:46:58Z</time>
      </trkpt>
      <trkpt lat="45.09345" lon="5.96306">
        <ele>1998.4</ele>
        <time>2016-03-09T10:47:04Z</time>
      </trkpt>
      <trkpt lat="45.09353" lon="5.96312">
        <ele>1995.4</ele>
        <time>2016-03-09T10:47:08Z</time>
      </trkpt>
      <trkpt lat="45.09364" lon="5.96312">
        <ele>1985.4</ele>
        <time>2016-03-09T10:47:18Z</time>
      </trkpt>
      <trkpt lat="45.09374" lon="5.96312">
        <ele>1971.4</ele>
        <time>2016-03-09T10:47:26Z</time>
      </trkpt>
      <trkpt lat="45.09383" lon="5.9631">
        <ele>1958.4</ele>
        <time>2016-03-09T10:47:35Z</time>
      </trkpt>
      <trkpt lat="45.09393" lon="5.96309">
        <ele>1951.4</ele>
        <time>2016-03-09T10:47:42Z</time>
      </trkpt>
      <trkpt lat="45.09395" lon="5.96294">
        <ele>1949.4</ele>
        <time>2016-03-09T10:47:45Z</time>
      </trkpt>
      <trkpt lat="45.09392" lon="5.96306">
        <ele>1938.4</ele>
        <time>2016-03-09T10:50:16Z</time>
      </trkpt>
      <trkpt lat="45.09383" lon="5.9631">
        <ele>1927.4</ele>
        <time>2016-03-09T10:51:10Z</time>
      </trkpt>
      <trkpt lat="45.09375" lon="5.96321">
        <ele>1908.4</ele>
        <time>2016-03-09T10:52:53Z</time>
      </trkpt>
      <trkpt lat="45.09384" lon="5.96315">
        <ele>1904.4</ele>
        <time>2016-03-09T10:55:05Z</time>
      </trkpt>
      <trkpt lat="45.09393" lon="5.9631">
        <ele>1900.4</ele>
        <time>2016-03-09T10:55:11Z</time>
      </trkpt>
      <trkpt lat="45.09403" lon="5.96309">
        <ele>1895.4</ele>
        <time>2016-03-09T10:55:20Z</time>
      </trkpt>
      <trkpt lat="45.09411" lon="5.96317">
        <ele>1891.4</ele>
        <time>2016-03-09T10:55:40Z</time>
      </trkpt>
      <trkpt lat="45.09402" lon="5.96319">
        <ele>1880.4</ele>
        <time>2016-03-09T10:56:57Z</time>
      </trkpt>
      <trkpt lat="45.09411" lon="5.96315">
        <ele>1879.4</ele>
        <time>2016-03-09T10:57:14Z</time>
      </trkpt>
      <trkpt lat="45.09416" lon="5.96327">
        <ele>1871.4</ele>
        <time>2016-03-09T10:58:01Z</time>
      </trkpt>
      <trkpt lat="45.09425" lon="5.96321">
        <ele>1864.4</ele>
        <time>2016-03-09T10:58:15Z</time>
      </trkpt>
      <trkpt lat="45.09433" lon="5.96316">
        <ele>1871.4</ele>
        <time>2016-03-09T10:58:35Z</time>
      </trkpt>
      <trkpt lat="45.09444" lon="5.96314">
        <ele>1866.4</ele>
        <time>2016-03-09T10:59:11Z</time>
      </trkpt>
      <trkpt lat="45.09453" lon="5.96316">
        <ele>1866.4</ele>
        <time>2016-03-09T10:59:19Z</time>
      </trkpt>
      <trkpt lat="45.09463" lon="5.96316">
        <ele>1864.4</ele>
        <time>2016-03-09T10:59:24Z</time>
      </trkpt>
      <trkpt lat="45.09474" lon="5.96313">
        <ele>1863.4</ele>
        <time>2016-03-09T10:59:27Z</time>
      </trkpt>
      <trkpt lat="45.09486" lon="5.9631">
        <ele>1858.4</ele>
        <time>2016-03-09T10:59:44Z</time>
      </trkpt>
      <trkpt lat="45.09495" lon="5.96309">
        <ele>1858.4</ele>
        <time>2016-03-09T10:59:48Z</time>
      </trkpt>
      <trkpt lat="45.09504" lon="5.96309">
        <ele>1856.4</ele>
        <time>2016-03-09T10:59:53Z</time>
      </trkpt>
      <trkpt lat="45.09515" lon="5.96304">
        <ele>1855.4</ele>
        <time>2016-03-09T10:59:56Z</time>
      </trkpt>
      <trkpt lat="45.09527" lon="5.96306">
        <ele>1848.4</ele>
        <time>2016-03-09T11:00:04Z</time>
      </trkpt>
      <trkpt lat="45.09543" lon="5.96305">
        <ele>1847.4</ele>
        <time>2016-03-09T11:00:08Z</time>
      </trkpt>
      <trkpt lat="45.09553" lon="5.96309">
        <ele>1845.4</ele>
        <time>2016-03-09T11:00:11Z</time>
      </trkpt>
      <trkpt lat="45.09562" lon="5.96308">
        <ele>1843.4</ele>
        <time>2016-03-09T11:00:14Z</time>
      </trkpt>
      <trkpt lat="45.09573" lon="5.9631">
        <ele>1840.4</ele>
        <time>2016-03-09T11:00:17Z</time>
      </trkpt>
      <trkpt lat="45.09584" lon="5.96303">
        <ele>1838.4</ele>
        <time>2016-03-09T11:00:22Z</time>
      </trkpt>
      <trkpt lat="45.09595" lon="5.96307">
        <ele>1825.4</ele>
        <time>2016-03-09T11:00:35Z</time>
      </trkpt>
      <trkpt lat="45.09605" lon="5.96307">
        <ele>1823.4</ele>
        <time>2016-03-09T11:00:37Z</time>
      </trkpt>
      <trkpt lat="45.09614" lon="5.96311">
        <ele>1822.4</ele>
        <time>2016-03-09T11:00:39Z</time>
      </trkpt>
      <trkpt lat="45.09623" lon="5.96309">
        <ele>1818.4</ele>
        <time>2016-03-09T11:00:43Z</time>
      </trkpt>
      <trkpt lat="45.09638" lon="5.96307">
        <ele>1802.4</ele>
        <time>2016-03-09T11:00:53Z</time>
      </trkpt>
      <trkpt lat="45.0965" lon="5.9631">
        <ele>1801.4</ele>
        <time>2016-03-09T11:00:56Z</time>
      </trkpt>
      <trkpt lat="45.09665" lon="5.96314">
        <ele>1799.4</ele>
        <time>2016-03-09T11:01:00Z</time>
      </trkpt>
      <trkpt lat="45.09659" lon="5.963">
        <ele>1790.4</ele>
        <time>2016-03-09T11:01:02Z</time>
      </trkpt>
      <trkpt lat="45.09667" lon="5.9629">
        <ele>1781.4</ele>
        <time>2016-03-09T11:01:07Z</time>
      </trkpt>
      <trkpt lat="45.09681" lon="5.96286">
        <ele>1775.4</ele>
        <time>2016-03-09T11:01:11Z</time>
      </trkpt>
      <trkpt lat="45.09692" lon="5.96277">
        <ele>1769.4</ele>
        <time>2016-03-09T11:01:15Z</time>
      </trkpt>
      <trkpt lat="45.09705" lon="5.96281">
        <ele>1769.4</ele>
        <time>2016-03-09T11:01:17Z</time>
      </trkpt>
      <trkpt lat="45.09719" lon="5.96286">
        <ele>1760.4</ele>
        <time>2016-03-09T11:01:22Z</time>
      </trkpt>
      <trkpt lat="45.09729" lon="5.96284">
        <ele>1752.4</ele>
        <time>2016-03-09T11:01:27Z</time>
      </trkpt>
      <trkpt lat="45.09737" lon="5.96276">
        <ele>1740.4</ele>
        <time>2016-03-09T11:01:33Z</time>
      </trkpt>
      <trkpt lat="45.09746" lon="5.96267">
        <ele>1736.4</ele>
        <time>2016-03-09T11:01:37Z</time>
      </trkpt>
      <trkpt lat="45.09755" lon="5.96262">
        <ele>1733.4</ele>
        <time>2016-03-09T11:01:39Z</time>
      </trkpt>
      <trkpt lat="45.09764" lon="5.96258">
        <ele>1730.4</ele>
        <time>2016-03-09T11:01:41Z</time>
      </trkpt>
      <trkpt lat="45.09778" lon="5.96253">
        <ele>1724.4</ele>
        <time>2016-03-09T11:01:45Z</time>
      </trkpt>
      <trkpt lat="45.09953" lon="5.96222">
        <ele>1921.4</ele>
        <time>2016-03-09T11:01:46Z</time>
      </trkpt>
      <trkpt lat="45.09947" lon="5.96199">
        <ele>1916.4</ele>
        <time>2016-03-09T11:01:47Z</time>
      </trkpt>
      <trkpt lat="45.09955" lon="5.96209">
        <ele>1910.4</ele>
        <time>2016-03-09T11:01:54Z</time>
      </trkpt>
      <trkpt lat="45.0995" lon="5.96196">
        <ele>1905.4</ele>
        <time>2016-03-09T11:01:57Z</time>
      </trkpt>
      <trkpt lat="45.09963" lon="5.96198">
        <ele>1905.4</ele>
        <time>2016-03-09T11:01:59Z</time>
      </trkpt>
      <trkpt lat="45.09974" lon="5.96199">
        <ele>1904.4</ele>
        <time>2016-03-09T11:02:00Z</time>
      </trkpt>
      <trkpt lat="45.09984" lon="5.96194">
        <ele>1902.4</ele>
        <time>2016-03-09T11:02:04Z</time>
      </trkpt>
      <trkpt lat="45.09993" lon="5.96194">
        <ele>1901.4</ele>
        <time>2016-03-09T11:02:07Z</time>
      </trkpt>
      <trkpt lat="45.09986" lon="5.96204">
        <ele>1883.4</ele>
        <time>2016-03-09T11:03:15Z</time>
      </trkpt>
      <trkpt lat="45.09995" lon="5.96199">
        <ele>1860.4</ele>
        <time>2016-03-09T11:03:24Z</time>
      </trkpt>
      <trkpt lat="45.10005" lon="5.96195">
        <ele>1853.4</ele>
        <time>2016-03-09T11:03:28Z</time>
      </trkpt>
      <trkpt lat="45.10017" lon="5.96195">
        <ele>1848.4</ele>
        <time>2016-03-09T11:03:32Z</time>
      </trkpt>
      <trkpt lat="45.1003" lon="5.96206">
        <ele>1843.4</ele>
        <time>2016-03-09T11:03:35Z</time>
      </trkpt>
      <trkpt lat="45.1004" lon="5.96202">
        <ele>1841.4</ele>
        <time>2016-03-09T11:03:37Z</time>
      </trkpt>
      <trkpt lat="45.1005" lon="5.96205">
        <ele>1839.4</ele>
        <time>2016-03-09T11:03:39Z</time>
      </trkpt>
      <trkpt lat="45.10062" lon="5.96203">
        <ele>1834.4</ele>
        <time>2016-03-09T11:03:42Z</time>
      </trkpt>
      <trkpt lat="45.10073" lon="5.96195">
        <ele>1828.4</ele>
        <time>2016-03-09T11:03:46Z</time>
      </trkpt>
      <trkpt lat="45.10084" lon="5.96202">
        <ele>1821.4</ele>
        <time>2016-03-09T11:03:50Z</time>
      </trkpt>
      <trkpt lat="45.10096" lon="5.96201">
        <ele>1812.4</ele>
        <time>2016-03-09T11:03:54Z</time>
      </trkpt>
      <trkpt lat="45.10105" lon="5.96195">
        <ele>1800.4</ele>
        <time>2016-03-09T11:03:58Z</time>
      </trkpt>
      <trkpt lat="45.10112" lon="5.96204">
        <ele>1796.4</ele>
        <time>2016-03-09T11:04:00Z</time>
      </trkpt>
      <trkpt lat="45.10121" lon="5.96199">
        <ele>1789.4</ele>
        <time>2016-03-09T11:04:03Z</time>
      </trkpt>
      <trkpt lat="45.1013" lon="5.96207">
        <ele>1780.4</ele>
        <time>2016-03-09T11:04:07Z</time>
      </trkpt>
      <trkpt lat="45.1014" lon="5.96208">
        <ele>1775.4</ele>
        <time>2016-03-09T11:04:10Z</time>
      </trkpt>
      <trkpt lat="45.10147" lon="5.96218">
        <ele>1766.4</ele>
        <time>2016-03-09T11:04:13Z</time>
      </trkpt>
      <trkpt lat="45.10156" lon="5.96223">
        <ele>1763.4</ele>
        <time>2016-03-09T11:04:15Z</time>
      </trkpt>
      <trkpt lat="45.10165" lon="5.9622">
        <ele>1743.4</ele>
        <time>2016-03-09T11:04:22Z</time>
      </trkpt>
      <trkpt lat="45.10163" lon="5.96237">
        <ele>1724.4</ele>
        <time>2016-03-09T11:04:30Z</time>
      </trkpt>
      <trkpt lat="45.10155" lon="5.96244">
        <ele>1719.4</ele>
        <time>2016-03-09T11:04:32Z</time>
      </trkpt>
      <trkpt lat="45.10138" lon="5.96244">
        <ele>1708.4</ele>
        <time>2016-03-09T11:04:35Z</time>
      </trkpt>
      <trkpt lat="45.1013" lon="5.96237">
        <ele>1703.4</ele>
        <time>2016-03-09T11:04:37Z</time>
      </trkpt>
      <trkpt lat="45.10141" lon="5.96225">
        <ele>1695.4</ele>
        <time>2016-03-09T11:04:42Z</time>
      </trkpt>
      <trkpt lat="45.10152" lon="5.96221">
        <ele>1694.4</ele>
        <time>2016-03-09T11:04:44Z</time>
      </trkpt>
      <trkpt lat="45.1016" lon="5.96215">
        <ele>1693.4</ele>
        <time>2016-03-09T11:04:49Z</time>
      </trkpt>
      <trkpt lat="45.10163" lon="5.96202">
        <ele>1684.4</ele>
        <time>2016-03-09T11:05:18Z</time>
      </trkpt>
      <trkpt lat="45.10176" lon="5.96204">
        <ele>1684.4</ele>
        <time>2016-03-09T11:05:20Z</time>
      </trkpt>
      <trkpt lat="45.10188" lon="5.96202">
        <ele>1684.4</ele>
        <time>2016-03-09T11:05:22Z</time>
      </trkpt>
      <trkpt lat="45.102" lon="5.96206">
        <ele>1686.4</ele>
        <time>2016-03-09T11:05:24Z</time>
      </trkpt>
      <trkpt lat="45.10211" lon="5.96206">
        <ele>1685.4</ele>
        <time>2016-03-09T11:05:26Z</time>
      </trkpt>
      <trkpt lat="45.1022" lon="5.96204">
        <ele>1685.4</ele>
        <time>2016-03-09T11:05:28Z</time>
      </trkpt>
      <trkpt lat="45.10229" lon="5.96212">
        <ele>1683.4</ele>
        <time>2016-03-09T11:05:30Z</time>
      </trkpt>
      <trkpt lat="45.10237" lon="5.96221">
        <ele>1680.4</ele>
        <time>2016-03-09T11:05:32Z</time>
      </trkpt>
      <trkpt lat="45.10247" lon="5.96227">
        <ele>1678.4</ele>
        <time>2016-03-09T11:05:34Z</time>
      </trkpt>
      <trkpt lat="45.10254" lon="5.96218">
        <ele>1675.4</ele>
        <time>2016-03-09T11:05:37Z</time>
      </trkpt>
      <trkpt lat="45.10265" lon="5.96214">
        <ele>1672.4</ele>
        <time>2016-03-09T11:05:40Z</time>
      </trkpt>
      <trkpt lat="45.10276" lon="5.96207">
        <ele>1671.4</ele>
        <time>2016-03-09T11:05:44Z</time>
      </trkpt>
      <trkpt lat="45.10287" lon="5.96203">
        <ele>1667.4</ele>
        <time>2016-03-09T11:05:47Z</time>
      </trkpt>
      <trkpt lat="45.10295" lon="5.96188">
        <ele>1663.4</ele>
        <time>2016-03-09T11:05:50Z</time>
      </trkpt>
      <trkpt lat="45.10304" lon="5.96178">
        <ele>1657.4</ele>
        <time>2016-03-09T11:05:54Z</time>
      </trkpt>
      <trkpt lat="45.10309" lon="5.96168">
        <ele>1644.4</ele>
        <time>2016-03-09T11:06:03Z</time>
      </trkpt>
      <trkpt lat="45.10317" lon="5.96158">
        <ele>1643.4</ele>
        <time>2016-03-09T11:06:06Z</time>
      </trkpt>
      <trkpt lat="45.10325" lon="5.9615">
        <ele>1636.4</ele>
        <time>2016-03-09T11:06:12Z</time>
      </trkpt>
      <trkpt lat="45.10334" lon="5.96145">
        <ele>1634.4</ele>
        <time>2016-03-09T11:06:17Z</time>
      </trkpt>
      <trkpt lat="45.10342" lon="5.96138">
        <ele>1622.4</ele>
        <time>2016-03-09T11:06:29Z</time>
      </trkpt>
      <trkpt lat="45.10352" lon="5.96134">
        <ele>1615.4</ele>
        <time>2016-03-09T11:06:37Z</time>
      </trkpt>
      <trkpt lat="45.10358" lon="5.96122">
        <ele>1612.4</ele>
        <time>2016-03-09T11:06:40Z</time>
      </trkpt>
      <trkpt lat="45.10367" lon="5.96114">
        <ele>1611.4</ele>
        <time>2016-03-09T11:06:43Z</time>
      </trkpt>
      <trkpt lat="45.10381" lon="5.96109">
        <ele>1610.4</ele>
        <time>2016-03-09T11:06:46Z</time>
      </trkpt>
      <trkpt lat="45.10388" lon="5.96102">
        <ele>1608.4</ele>
        <time>2016-03-09T11:06:50Z</time>
      </trkpt>
      <trkpt lat="45.10396" lon="5.96092">
        <ele>1596.4</ele>
        <time>2016-03-09T11:06:58Z</time>
      </trkpt>
      <trkpt lat="45.10405" lon="5.96091">
        <ele>1593.4</ele>
        <time>2016-03-09T11:07:04Z</time>
      </trkpt>
      <trkpt lat="45.10418" lon="5.9609">
        <ele>1591.4</ele>
        <time>2016-03-09T11:07:07Z</time>
      </trkpt>
      <trkpt lat="45.10428" lon="5.96092">
        <ele>1588.4</ele>
        <time>2016-03-09T11:07:10Z</time>
      </trkpt>
      <trkpt lat="45.1042" lon="5.96099">
        <ele>1580.4</ele>
        <time>2016-03-09T11:07:19Z</time>
      </trkpt>
      <trkpt lat="45.10412" lon="5.96093">
        <ele>1560.4</ele>
        <time>2016-03-09T11:07:35Z</time>
      </trkpt>
      <trkpt lat="45.10403" lon="5.96096">
        <ele>1550.4</ele>
        <time>2016-03-09T11:08:03Z</time>
      </trkpt>
      <trkpt lat="45.10393" lon="5.96098">
        <ele>1533.4</ele>
        <time>2016-03-09T11:08:43Z</time>
      </trkpt>
      <trkpt lat="45.10401" lon="5.9609">
        <ele>1515.4</ele>
        <time>2016-03-09T11:09:23Z</time>
      </trkpt>
      <trkpt lat="45.1041" lon="5.96095">
        <ele>1515.4</ele>
        <time>2016-03-09T11:09:27Z</time>
      </trkpt>
      <trkpt lat="45.10423" lon="5.96092">
        <ele>1515.4</ele>
        <time>2016-03-09T11:09:31Z</time>
      </trkpt>
      <trkpt lat="45.10434" lon="5.96084">
        <ele>1514.4</ele>
        <time>2016-03-09T11:09:33Z</time>
      </trkpt>
      <trkpt lat="45.10442" lon="5.96075">
        <ele>1510.4</ele>
        <time>2016-03-09T11:09:36Z</time>
      </trkpt>
      <trkpt lat="45.10453" lon="5.96072">
        <ele>1510.4</ele>
        <time>2016-03-09T11:09:39Z</time>
      </trkpt>
      <trkpt lat="45.10463" lon="5.96068">
        <ele>1508.4</ele>
        <time>2016-03-09T11:09:41Z</time>
      </trkpt>
      <trkpt lat="45.10471" lon="5.96063">
        <ele>1507.4</ele>
        <time>2016-03-09T11:09:43Z</time>
      </trkpt>
      <trkpt lat="45.10479" lon="5.96049">
        <ele>1503.4</ele>
        <time>2016-03-09T11:09:47Z</time>
      </trkpt>
      <trkpt lat="45.10491" lon="5.96037">
        <ele>1501.4</ele>
        <time>2016-03-09T11:09:50Z</time>
      </trkpt>
      <trkpt lat="45.10504" lon="5.96037">
        <ele>1500.4</ele>
        <time>2016-03-09T11:09:52Z</time>
      </trkpt>
      <trkpt lat="45.10515" lon="5.96032">
        <ele>1497.4</ele>
        <time>2016-03-09T11:09:55Z</time>
      </trkpt>
      <trkpt lat="45.10525" lon="5.96028">
        <ele>1495.4</ele>
        <time>2016-03-09T11:09:57Z</time>
      </trkpt>
      <trkpt lat="45.10535" lon="5.96023">
        <ele>1490.4</ele>
        <time>2016-03-09T11:10:05Z</time>
      </trkpt>
      <trkpt lat="45.10546" lon="5.96025">
        <ele>1489.4</ele>
        <time>2016-03-09T11:10:08Z</time>
      </trkpt>
      <trkpt lat="45.10559" lon="5.96027">
        <ele>1488.4</ele>
        <time>2016-03-09T11:10:10Z</time>
      </trkpt>
      <trkpt lat="45.1057" lon="5.96024">
        <ele>1487.4</ele>
        <time>2016-03-09T11:10:12Z</time>
      </trkpt>
      <trkpt lat="45.1058" lon="5.96011">
        <ele>1475.4</ele>
        <time>2016-03-09T11:10:43Z</time>
      </trkpt>
      <trkpt lat="45.10588" lon="5.96005">
        <ele>1474.4</ele>
        <time>2016-03-09T11:10:48Z</time>
      </trkpt>
      <trkpt lat="45.10597" lon="5.96001">
        <ele>1472.4</ele>
        <time>2016-03-09T11:10:56Z</time>
      </trkpt>
      <trkpt lat="45.10605" lon="5.95989">
        <ele>1471.4</ele>
        <time>2016-03-09T11:11:01Z</time>
      </trkpt>
      <trkpt lat="45.10612" lon="5.9598">
        <ele>1468.4</ele>
        <time>2016-03-09T11:11:09Z</time>
      </trkpt>
      <trkpt lat="45.10621" lon="5.95977">
        <ele>1471.4</ele>
        <time>2016-03-09T11:11:45Z</time>
      </trkpt>
      <trkpt lat="45.10935" lon="5.95828">
        <ele>1921.4</ele>
        <time>2016-03-09T11:12:11Z</time>
      </trkpt>
      <trkpt lat="45.10925" lon="5.95834">
        <ele>1904.4</ele>
        <time>2016-03-09T11:12:13Z</time>
      </trkpt>
      <trkpt lat="45.10937" lon="5.9583">
        <ele>1913.4</ele>
        <time>2016-03-09T11:12:15Z</time>
      </trkpt>
      <trkpt lat="45.10928" lon="5.95831">
        <ele>1901.4</ele>
        <time>2016-03-09T11:12:20Z</time>
      </trkpt>
      <trkpt lat="45.10917" lon="5.95829">
        <ele>1868.4</ele>
        <time>2016-03-09T11:12:39Z</time>
      </trkpt>
      <trkpt lat="45.10915" lon="5.95842">
        <ele>1850.4</ele>
        <time>2016-03-09T11:12:53Z</time>
      </trkpt>
      <trkpt lat="45.10923" lon="5.95834">
        <ele>1821.4</ele>
        <time>2016-03-09T11:13:24Z</time>
      </trkpt>
      <trkpt lat="45.10931" lon="5.95827">
        <ele>1826.4</ele>
        <time>2016-03-09T11:13:29Z</time>
      </trkpt>
      <trkpt lat="45.1094" lon="5.95825">
        <ele>1822.4</ele>
        <time>2016-03-09T11:13:37Z</time>
      </trkpt>
      <trkpt lat="45.10931" lon="5.95831">
        <ele>1804.4</ele>
        <time>2016-03-09T11:13:44Z</time>
      </trkpt>
      <trkpt lat="45.10922" lon="5.95828">
        <ele>1791.4</ele>
        <time>2016-03-09T11:14:09Z</time>
      </trkpt>
      <trkpt lat="45.10911" lon="5.95827">
        <ele>1774.4</ele>
        <time>2016-03-09T11:14:28Z</time>
      </trkpt>
      <trkpt lat="45.10897" lon="5.95829">
        <ele>1741.4</ele>
        <time>2016-03-09T11:14:54Z</time>
      </trkpt>
      <trkpt lat="45.10907" lon="5.95831">
        <ele>1704.4</ele>
        <time>2016-03-09T11:15:17Z</time>
      </trkpt>
      <trkpt lat="45.10917" lon="5.95833">
        <ele>1699.4</ele>
        <time>2016-03-09T11:15:21Z</time>
      </trkpt>
      <trkpt lat="45.10922" lon="5.95845">
        <ele>1675.4</ele>
        <time>2016-03-09T11:15:32Z</time>
      </trkpt>
      <trkpt lat="45.10914" lon="5.95839">
        <ele>1655.4</ele>
        <time>2016-03-09T11:16:04Z</time>
      </trkpt>
      <trkpt lat="45.10905" lon="5.95844">
        <ele>1639.4</ele>
        <time>2016-03-09T11:16:17Z</time>
      </trkpt>
      <trkpt lat="45.10897" lon="5.95851">
        <ele>1619.4</ele>
        <time>2016-03-09T11:16:32Z</time>
      </trkpt>
      <trkpt lat="45.10888" lon="5.95857">
        <ele>1602.4</ele>
        <time>2016-03-09T11:16:40Z</time>
      </trkpt>
      <trkpt lat="45.10879" lon="5.95859">
        <ele>1590.4</ele>
        <time>2016-03-09T11:16:51Z</time>
      </trkpt>
      <trkpt lat="45.10868" lon="5.95861">
        <ele>1575.4</ele>
        <time>2016-03-09T11:17:10Z</time>
      </trkpt>
      <trkpt lat="45.10859" lon="5.95868">
        <ele>1559.4</ele>
        <time>2016-03-09T11:17:16Z</time>
      </trkpt>
      <trkpt lat="45.10851" lon="5.95878">
        <ele>1541.4</ele>
        <time>2016-03-09T11:17:20Z</time>
      </trkpt>
      <trkpt lat="45.10842" lon="5.95877">
        <ele>1526.4</ele>
        <time>2016-03-09T11:17:41Z</time>
      </trkpt>
      <trkpt lat="45.10834" lon="5.95882">
        <ele>1515.4</ele>
        <time>2016-03-09T11:17:50Z</time>
      </trkpt>
      <trkpt lat="45.10824" lon="5.95883">
        <ele>1503.4</ele>
        <time>2016-03-09T11:17:56Z</time>
      </trkpt>
      <trkpt lat="45.10815" lon="5.95884">
        <ele>1489.4</ele>
        <time>2016-03-09T11:18:37Z</time>
      </trkpt>
      <trkpt lat="45.10804" lon="5.95883">
        <ele>1480.4</ele>
        <time>2016-03-09T11:18:44Z</time>
      </trkpt>
      <trkpt lat="45.10795" lon="5.95881">
        <ele>1471.4</ele>
        <time>2016-03-09T11:18:56Z</time>
      </trkpt>
      <trkpt lat="45.10786" lon="5.95885">
        <ele>1453.4</ele>
        <time>2016-03-09T11:19:10Z</time>
      </trkpt>
      <trkpt lat="45.10776" lon="5.95885">
        <ele>1440.4</ele>
        <time>2016-03-09T11:19:45Z</time>
      </trkpt>
      <trkpt lat="45.10767" lon="5.95886">
        <ele>1431.4</ele>
        <time>2016-03-09T11:19:51Z</time>
      </trkpt>
      <trkpt lat="45.10757" lon="5.95887">
        <ele>1416.4</ele>
        <time>2016-03-09T11:20:17Z</time>
      </trkpt>
      <trkpt lat="45.10748" lon="5.95888">
        <ele>1404.4</ele>
        <time>2016-03-09T11:20:29Z</time>
      </trkpt>
      <trkpt lat="45.10738" lon="5.95891">
        <ele>1388.4</ele>
        <time>2016-03-09T11:20:40Z</time>
      </trkpt>
      <trkpt lat="45.10722" lon="5.95895">
        <ele>1367.4</ele>
        <time>2016-03-09T11:21:11Z</time>
      </trkpt>
      <trkpt lat="45.10712" lon="5.95896">
        <ele>1352.4</ele>
        <time>2016-03-09T11:21:47Z</time>
      </trkpt>
      <trkpt lat="45.10703" lon="5.95898">
        <ele>1339.4</ele>
        <time>2016-03-09T11:21:55Z</time>
      </trkpt>
      <trkpt lat="45.10694" lon="5.95896">
        <ele>1331.4</ele>
        <time>2016-03-09T11:22:03Z</time>
      </trkpt>
      <trkpt lat="45.10686" lon="5.95902">
        <ele>1311.4</ele>
        <time>2016-03-09T11:22:51Z</time>
      </trkpt>
      <trkpt lat="45.10694" lon="5.95908">
        <ele>1302.4</ele>
        <time>2016-03-09T11:23:03Z</time>
      </trkpt>
      <trkpt lat="45.10703" lon="5.95913">
        <ele>1296.4</ele>
        <time>2016-03-09T11:23:17Z</time>
      </trkpt>
      <trkpt lat="45.10711" lon="5.95906">
        <ele>1290.4</ele>
        <time>2016-03-09T11:23:42Z</time>
      </trkpt>
      <trkpt lat="45.10714" lon="5.95894">
        <ele>1258.4</ele>
        <time>2016-03-09T11:24:15Z</time>
      </trkpt>
      <trkpt lat="45.10723" lon="5.95892">
        <ele>1160.4</ele>
        <time>2016-03-09T11:26:04Z</time>
      </trkpt>
      <trkpt lat="45.10731" lon="5.95887">
        <ele>1152.4</ele>
        <time>2016-03-09T11:26:20Z</time>
      </trkpt>
      <trkpt lat="45.10741" lon="5.95883">
        <ele>1134.4</ele>
        <time>2016-03-09T11:26:41Z</time>
      </trkpt>
      <trkpt lat="45.10735" lon="5.95894">
        <ele>1108.4</ele>
        <time>2016-03-09T11:26:47Z</time>
      </trkpt>
      <trkpt lat="45.10731" lon="5.95905">
        <ele>1070.4</ele>
        <time>2016-03-09T11:27:01Z</time>
      </trkpt>
      <trkpt lat="45.10729" lon="5.95919">
        <ele>1029.4</ele>
        <time>2016-03-09T11:27:35Z</time>
      </trkpt>
      <trkpt lat="45.1072" lon="5.95919">
        <ele>1021.4</ele>
        <time>2016-03-09T11:29:19Z</time>
      </trkpt>
      <trkpt lat="45.10731" lon="5.95925">
        <ele>1025.4</ele>
        <time>2016-03-09T11:30:09Z</time>
      </trkpt>
      <trkpt lat="45.10736" lon="5.95935">
        <ele>1014.4</ele>
        <time>2016-03-09T11:30:37Z</time>
      </trkpt>
      <trkpt lat="45.10745" lon="5.9594">
        <ele>1008.4</ele>
        <time>2016-03-09T11:30:57Z</time>
      </trkpt>
      <trkpt lat="45.1075" lon="5.95929">
        <ele>1011.4</ele>
        <time>2016-03-09T11:31:24Z</time>
      </trkpt>
      <trkpt lat="45.10759" lon="5.95929">
        <ele>1010.4</ele>
        <time>2016-03-09T11:31:32Z</time>
      </trkpt>
      <trkpt lat="45.10769" lon="5.95933">
        <ele>1001.4</ele>
        <time>2016-03-09T11:31:40Z</time>
      </trkpt>
      <trkpt lat="45.10778" lon="5.95931">
        <ele>979.4</ele>
        <time>2016-03-09T11:32:38Z</time>
      </trkpt>
      <trkpt lat="45.1079" lon="5.95928">
        <ele>975.4</ele>
        <time>2016-03-09T11:32:44Z</time>
      </trkpt>
      <trkpt lat="45.10799" lon="5.95924">
        <ele>971.4</ele>
        <time>2016-03-09T11:33:11Z</time>
      </trkpt>
      <trkpt lat="45.10808" lon="5.95926">
        <ele>971.4</ele>
        <time>2016-03-09T11:33:17Z</time>
      </trkpt>
      <trkpt lat="45.10817" lon="5.95932">
        <ele>960.4</ele>
        <time>2016-03-09T11:33:31Z</time>
      </trkpt>
      <trkpt lat="45.10826" lon="5.95938">
        <ele>955.4</ele>
        <time>2016-03-09T11:33:38Z</time>
      </trkpt>
      <trkpt lat="45.10835" lon="5.95942">
        <ele>955.4</ele>
        <time>2016-03-09T11:33:43Z</time>
      </trkpt>
      <trkpt lat="45.10844" lon="5.95947">
        <ele>959.4</ele>
        <time>2016-03-09T11:33:48Z</time>
      </trkpt>
      <trkpt lat="45.10853" lon="5.9595">
        <ele>959.4</ele>
        <time>2016-03-09T11:33:57Z</time>
      </trkpt>
      <trkpt lat="45.10862" lon="5.95955">
        <ele>962.4</ele>
        <time>2016-03-09T11:34:03Z</time>
      </trkpt>
      <trkpt lat="45.10872" lon="5.95951">
        <ele>964.4</ele>
        <time>2016-03-09T11:34:10Z</time>
      </trkpt>
      <trkpt lat="45.1087" lon="5.95938">
        <ele>966.4</ele>
        <time>2016-03-09T11:34:23Z</time>
      </trkpt>
      <trkpt lat="45.10865" lon="5.95926">
        <ele>966.4</ele>
        <time>2016-03-09T11:34:36Z</time>
      </trkpt>
      <trkpt lat="45.10857" lon="5.95919">
        <ele>961.4</ele>
        <time>2016-03-09T11:34:47Z</time>
      </trkpt>
      <trkpt lat="45.10848" lon="5.95911">
        <ele>956.4</ele>
        <time>2016-03-09T11:35:28Z</time>
      </trkpt>
      <trkpt lat="45.10855" lon="5.95897">
        <ele>954.4</ele>
        <time>2016-03-09T11:35:32Z</time>
      </trkpt>
      <trkpt lat="45.10866" lon="5.95894">
        <ele>947.4</ele>
        <time>2016-03-09T11:35:39Z</time>
      </trkpt>
      <trkpt lat="45.10876" lon="5.95894">
        <ele>945.4</ele>
        <time>2016-03-09T11:35:40Z</time>
      </trkpt>
      <trkpt lat="45.10885" lon="5.95897">
        <ele>944.4</ele>
        <time>2016-03-09T11:35:41Z</time>
      </trkpt>
      <trkpt lat="45.10896" lon="5.95894">
        <ele>942.4</ele>
        <time>2016-03-09T11:35:44Z</time>
      </trkpt>
      <trkpt lat="45.10907" lon="5.95894">
        <ele>941.4</ele>
        <time>2016-03-09T11:35:47Z</time>
      </trkpt>
      <trkpt lat="45.10919" lon="5.95894">
        <ele>940.4</ele>
        <time>2016-03-09T11:35:53Z</time>
      </trkpt>
      <trkpt lat="45.10926" lon="5.95886">
        <ele>938.4</ele>
        <time>2016-03-09T11:35:57Z</time>
      </trkpt>
      <trkpt lat="45.10927" lon="5.95869">
        <ele>936.4</ele>
        <time>2016-03-09T11:36:01Z</time>
      </trkpt>
      <trkpt lat="45.1093" lon="5.95857">
        <ele>934.4</ele>
        <time>2016-03-09T11:36:04Z</time>
      </trkpt>
      <trkpt lat="45.10939" lon="5.95858">
        <ele>907.4</ele>
        <time>2016-03-09T11:36:39Z</time>
      </trkpt>
      <trkpt lat="45.10947" lon="5.95851">
        <ele>891.4</ele>
        <time>2016-03-09T11:36:53Z</time>
      </trkpt>
      <trkpt lat="45.10956" lon="5.95845">
        <ele>886.4</ele>
        <time>2016-03-09T11:37:02Z</time>
      </trkpt>
      <trkpt lat="45.10966" lon="5.95846">
        <ele>872.4</ele>
        <time>2016-03-09T11:37:19Z</time>
      </trkpt>
      <trkpt lat="45.10977" lon="5.95846">
        <ele>863.4</ele>
        <time>2016-03-09T11:37:29Z</time>
      </trkpt>
      <trkpt lat="45.10987" lon="5.95844">
        <ele>862.4</ele>
        <time>2016-03-09T11:37:37Z</time>
      </trkpt>
      <trkpt lat="45.10996" lon="5.95841">
        <ele>862.4</ele>
        <time>2016-03-09T11:37:49Z</time>
      </trkpt>
      <trkpt lat="45.11007" lon="5.9584">
        <ele>860.4</ele>
        <time>2016-03-09T11:37:57Z</time>
      </trkpt>
      <trkpt lat="45.11018" lon="5.95844">
        <ele>853.4</ele>
        <time>2016-03-09T11:38:04Z</time>
      </trkpt>
      <trkpt lat="45.11026" lon="5.9585">
        <ele>844.4</ele>
        <time>2016-03-09T11:38:13Z</time>
      </trkpt>
      <trkpt lat="45.11036" lon="5.95849">
        <ele>846.4</ele>
        <time>2016-03-09T11:38:17Z</time>
      </trkpt>
      <trkpt lat="45.11047" lon="5.95848">
        <ele>848.4</ele>
        <time>2016-03-09T11:38:20Z</time>
      </trkpt>
      <trkpt lat="45.11057" lon="5.95853">
        <ele>848.4</ele>
        <time>2016-03-09T11:38:24Z</time>
      </trkpt>
      <trkpt lat="45.11065" lon="5.95858">
        <ele>844.4</ele>
        <time>2016-03-09T11:38:33Z</time>
      </trkpt>
      <trkpt lat="45.11074" lon="5.95865">
        <ele>841.4</ele>
        <time>2016-03-09T11:38:42Z</time>
      </trkpt>
      <trkpt lat="45.11086" lon="5.95868">
        <ele>843.4</ele>
        <time>2016-03-09T11:38:45Z</time>
      </trkpt>
      <trkpt lat="45.11095" lon="5.95873">
        <ele>843.4</ele>
        <time>2016-03-09T11:38:49Z</time>
      </trkpt>
      <trkpt lat="45.11106" lon="5.95876">
        <ele>844.4</ele>
        <time>2016-03-09T11:38:53Z</time>
      </trkpt>
      <trkpt lat="45.1111" lon="5.95889">
        <ele>846.4</ele>
        <time>2016-03-09T11:38:59Z</time>
      </trkpt>
      <trkpt lat="45.11118" lon="5.95896">
        <ele>839.4</ele>
        <time>2016-03-09T11:39:08Z</time>
      </trkpt>
      <trkpt lat="45.11127" lon="5.95904">
        <ele>836.4</ele>
        <time>2016-03-09T11:39:16Z</time>
      </trkpt>
      <trkpt lat="45.11134" lon="5.95913">
        <ele>835.4</ele>
        <time>2016-03-09T11:39:24Z</time>
      </trkpt>
      <trkpt lat="45.1114" lon="5.95922">
        <ele>831.4</ele>
        <time>2016-03-09T11:39:34Z</time>
      </trkpt>
      <trkpt lat="45.11145" lon="5.95934">
        <ele>828.4</ele>
        <time>2016-03-09T11:39:43Z</time>
      </trkpt>
      <trkpt lat="45.1115" lon="5.95947">
        <ele>822.4</ele>
        <time>2016-03-09T11:39:51Z</time>
      </trkpt>
      <trkpt lat="45.11155" lon="5.9596">
        <ele>820.4</ele>
        <time>2016-03-09T11:39:58Z</time>
      </trkpt>
      <trkpt lat="45.11155" lon="5.95973">
        <ele>815.4</ele>
        <time>2016-03-09T11:40:08Z</time>
      </trkpt>
      <trkpt lat="45.11164" lon="5.95978">
        <ele>814.4</ele>
        <time>2016-03-09T11:40:14Z</time>
      </trkpt>
      <trkpt lat="45.1117" lon="5.9599">
        <ele>812.4</ele>
        <time>2016-03-09T11:40:22Z</time>
      </trkpt>
      <trkpt lat="45.11172" lon="5.96004">
        <ele>811.4</ele>
        <time>2016-03-09T11:40:30Z</time>
      </trkpt>
      <trkpt lat="45.11175" lon="5.96017">
        <ele>811.4</ele>
        <time>2016-03-09T11:40:38Z</time>
      </trkpt>
      <trkpt lat="45.11183" lon="5.96027">
        <ele>811.4</ele>
        <time>2016-03-09T11:40:47Z</time>
      </trkpt>
      <trkpt lat="45.11189" lon="5.96037">
        <ele>811.4</ele>
        <time>2016-03-09T11:40:56Z</time>
      </trkpt>
      <trkpt lat="45.11197" lon="5.96044">
        <ele>808.4</ele>
        <time>2016-03-09T11:41:04Z</time>
      </trkpt>
      <trkpt lat="45.11207" lon="5.96048">
        <ele>805.4</ele>
        <time>2016-03-09T11:41:14Z</time>
      </trkpt>
      <trkpt lat="45.11216" lon="5.96054">
        <ele>799.4</ele>
        <time>2016-03-09T11:41:26Z</time>
      </trkpt>
      <trkpt lat="45.11224" lon="5.9606">
        <ele>793.4</ele>
        <time>2016-03-09T11:41:37Z</time>
      </trkpt>
      <trkpt lat="45.11233" lon="5.96067">
        <ele>787.4</ele>
        <time>2016-03-09T11:41:46Z</time>
      </trkpt>
      <trkpt lat="45.11241" lon="5.96075">
        <ele>785.4</ele>
        <time>2016-03-09T11:41:53Z</time>
      </trkpt>
      <trkpt lat="45.11251" lon="5.96078">
        <ele>782.4</ele>
        <time>2016-03-09T11:41:58Z</time>
      </trkpt>
      <trkpt lat="45.11259" lon="5.96086">
        <ele>781.4</ele>
        <time>2016-03-09T11:42:04Z</time>
      </trkpt>
      <trkpt lat="45.11264" lon="5.96098">
        <ele>775.4</ele>
        <time>2016-03-09T11:42:15Z</time>
      </trkpt>
      <trkpt lat="45.11271" lon="5.96107">
        <ele>775.4</ele>
        <time>2016-03-09T11:42:23Z</time>
      </trkpt>
      <trkpt lat="45.11279" lon="5.96115">
        <ele>777.4</ele>
        <time>2016-03-09T11:42:30Z</time>
      </trkpt>
      <trkpt lat="45.11286" lon="5.96124">
        <ele>773.4</ele>
        <time>2016-03-09T11:42:37Z</time>
      </trkpt>
      <trkpt lat="45.11295" lon="5.96131">
        <ele>771.4</ele>
        <time>2016-03-09T11:42:44Z</time>
      </trkpt>
      <trkpt lat="45.11302" lon="5.96139">
        <ele>772.4</ele>
        <time>2016-03-09T11:42:51Z</time>
      </trkpt>
      <trkpt lat="45.11312" lon="5.96146">
        <ele>774.4</ele>
        <time>2016-03-09T11:42:58Z</time>
      </trkpt>
      <trkpt lat="45.11317" lon="5.96157">
        <ele>766.4</ele>
        <time>2016-03-09T11:43:08Z</time>
      </trkpt>
      <trkpt lat="45.11325" lon="5.96164">
        <ele>763.4</ele>
        <time>2016-03-09T11:43:14Z</time>
      </trkpt>
      <trkpt lat="45.11334" lon="5.9617">
        <ele>761.4</ele>
        <time>2016-03-09T11:43:19Z</time>
      </trkpt>
      <trkpt lat="45.11342" lon="5.96178">
        <ele>758.4</ele>
        <time>2016-03-09T11:43:27Z</time>
      </trkpt>
      <trkpt lat="45.11349" lon="5.96187">
        <ele>757.4</ele>
        <time>2016-03-09T11:43:34Z</time>
      </trkpt>
      <trkpt lat="45.11358" lon="5.96194">
        <ele>757.4</ele>
        <time>2016-03-09T11:43:42Z</time>
      </trkpt>
      <trkpt lat="45.11361" lon="5.96206">
        <ele>757.4</ele>
        <time>2016-03-09T11:43:58Z</time>
      </trkpt>
      <trkpt lat="45.11371" lon="5.96212">
        <ele>760.4</ele>
        <time>2016-03-09T11:44:02Z</time>
      </trkpt>
      <trkpt lat="45.1138" lon="5.96216">
        <ele>755.4</ele>
        <time>2016-03-09T11:44:07Z</time>
      </trkpt>
      <trkpt lat="45.11388" lon="5.96222">
        <ele>745.4</ele>
        <time>2016-03-09T11:44:19Z</time>
      </trkpt>
      <trkpt lat="45.11396" lon="5.96228">
        <ele>738.4</ele>
        <time>2016-03-09T11:44:28Z</time>
      </trkpt>
      <trkpt lat="45.11405" lon="5.96231">
        <ele>741.4</ele>
        <time>2016-03-09T11:44:33Z</time>
      </trkpt>
      <trkpt lat="45.11416" lon="5.96236">
        <ele>739.4</ele>
        <time>2016-03-09T11:44:39Z</time>
      </trkpt>
      <trkpt lat="45.11426" lon="5.96238">
        <ele>739.4</ele>
        <time>2016-03-09T11:44:44Z</time>
      </trkpt>
      <trkpt lat="45.11436" lon="5.96241">
        <ele>738.4</ele>
        <time>2016-03-09T11:44:50Z</time>
      </trkpt>
      <trkpt lat="45.11445" lon="5.96239">
        <ele>737.4</ele>
        <time>2016-03-09T11:44:57Z</time>
      </trkpt>
      <trkpt lat="45.11454" lon="5.96233">
        <ele>730.4</ele>
        <time>2016-03-09T11:45:09Z</time>
      </trkpt>
      <trkpt lat="45.11462" lon="5.96226">
        <ele>730.4</ele>
        <time>2016-03-09T11:45:16Z</time>
      </trkpt>
      <trkpt lat="45.11469" lon="5.96218">
        <ele>731.4</ele>
        <time>2016-03-09T11:45:23Z</time>
      </trkpt>
      <trkpt lat="45.11474" lon="5.96207">
        <ele>733.4</ele>
        <time>2016-03-09T11:45:33Z</time>
      </trkpt>
      <trkpt lat="45.11475" lon="5.96194">
        <ele>731.4</ele>
        <time>2016-03-09T11:46:01Z</time>
      </trkpt>
      <trkpt lat="45.11472" lon="5.96181">
        <ele>728.4</ele>
        <time>2016-03-09T11:46:18Z</time>
      </trkpt>
      <trkpt lat="45.11468" lon="5.96169">
        <ele>722.4</ele>
        <time>2016-03-09T11:46:39Z</time>
      </trkpt>
      <trkpt lat="45.11463" lon="5.96158">
        <ele>720.4</ele>
        <time>2016-03-09T11:46:54Z</time>
      </trkpt>
      <trkpt lat="45.11458" lon="5.96147">
        <ele>704.4</ele>
        <time>2016-03-09T11:47:11Z</time>
      </trkpt>
      <trkpt lat="45.1146" lon="5.96132">
        <ele>690.4</ele>
        <time>2016-03-09T11:47:24Z</time>
      </trkpt>
      <trkpt lat="45.11458" lon="5.96118">
        <ele>683.4</ele>
        <time>2016-03-09T11:47:31Z</time>
      </trkpt>
      <trkpt lat="45.11454" lon="5.96106">
        <ele>683.4</ele>
        <time>2016-03-09T11:47:38Z</time>
      </trkpt>
      <trkpt lat="45.11451" lon="5.96094">
        <ele>686.4</ele>
        <time>2016-03-09T11:47:53Z</time>
      </trkpt>
      <trkpt lat="45.11448" lon="5.96083">
        <ele>671.4</ele>
        <time>2016-03-09T11:50:09Z</time>
      </trkpt>
    </trkseg>
  </trk>
</gpx>